<?xml version="1.0" encoding="UTF-8"?><gpx xmlns="http://www.topografix.com/GPX/1/1"  creator="TraceDeTrail http://www.tracedetrail.fr" version="1.1" xmlns:xsi="http://www.w3.org/2001/XMLSchema-instance" xsi:schemaLocation="http://www.topografix.com/GPX/1/1 http://www.topografix.com/GPX/1/1/gpx.xsd "><metadata><name>Tour des lacs de Chamrousse</name><link href="http://tracedetrail.fr/fr/trace/trace/159238"><text>methode de calcul : astergdem </text></link></metadata><trk><name>Tour des lacs de Chamrousse sur TraceDeTrail.fr</name><trkseg><trkpt lat="45.12426" lon="5.88587"><ele>1799</ele><time>2000-01-01T00:26:12.000Z</time></trkpt><trkpt lat="45.1242" lon="5.88633"><ele>1808</ele><time>2000-01-01T00:26:22.000Z</time></trkpt><trkpt lat="45.12414" lon="5.88676"><ele>1812</ele><time>2000-01-01T00:26:32.000Z</time></trkpt><trkpt lat="45.12414" lon="5.88695"><time>2000-01-01T00:26:42.000Z</time></trkpt><trkpt lat="45.12415" lon="5.88704"><ele>1814</ele><time>2000-01-01T00:26:52.000Z</time></trkpt><trkpt lat="45.12426" lon="5.88726"><time>2000-01-01T00:27:02.000Z</time></trkpt><trkpt lat="45.12443" lon="5.88744"><ele>1823</ele><time>2000-01-01T00:27:12.000Z</time></trkpt><trkpt lat="45.12478" lon="5.88772"><ele>1832</ele><time>2000-01-01T00:27:22.000Z</time></trkpt><trkpt lat="45.12521" lon="5.88799"><ele>1845</ele><time>2000-01-01T00:27:32.000Z</time></trkpt><trkpt lat="45.12533" lon="5.88805"><time>2000-01-01T00:27:42.000Z</time></trkpt><trkpt lat="45.12555" lon="5.88821"><ele>1848</ele><time>2000-01-01T00:27:52.000Z</time></trkpt><trkpt lat="45.12575" lon="5.88844"><ele>1852</ele><time>2000-01-01T00:28:02.000Z</time></trkpt><trkpt lat="45.12581" lon="5.88851"><time>2000-01-01T00:28:12.000Z</time></trkpt><trkpt lat="45.12588" lon="5.88861"><time>2000-01-01T00:28:22.000Z</time></trkpt><trkpt lat="45.12602" lon="5.88881"><ele>1862</ele><time>2000-01-01T00:28:32.000Z</time></trkpt><trkpt lat="45.12606" lon="5.88894"><time>2000-01-01T00:28:42.000Z</time></trkpt><trkpt lat="45.12607" lon="5.88904"><time>2000-01-01T00:28:52.000Z</time></trkpt><trkpt lat="45.12608" lon="5.8892"><ele>1868</ele><time>2000-01-01T00:29:02.000Z</time></trkpt><trkpt lat="45.12612" lon="5.88931"><time>2000-01-01T00:29:12.000Z</time></trkpt><trkpt lat="45.12621" lon="5.88939"><ele>1868</ele><time>2000-01-01T00:29:22.000Z</time></trkpt><trkpt lat="45.12623" lon="5.8894"><time>2000-01-01T00:29:32.000Z</time></trkpt><trkpt lat="45.1264" lon="5.88944"><ele>1863</ele><time>2000-01-01T00:29:42.000Z</time></trkpt><trkpt lat="45.12662" lon="5.88951"><ele>1859</ele><time>2000-01-01T00:29:52.000Z</time></trkpt><trkpt lat="45.1267" lon="5.88955"><time>2000-01-01T00:30:02.000Z</time></trkpt><trkpt lat="45.12693" lon="5.88969"><ele>1852</ele><time>2000-01-01T00:30:12.000Z</time></trkpt><trkpt lat="45.12697" lon="5.88969"><time>2000-01-01T00:30:22.000Z</time></trkpt><trkpt lat="45.12706" lon="5.88964"><time>2000-01-01T00:30:32.000Z</time></trkpt><trkpt lat="45.12717" lon="5.88941"><ele>1842</ele><time>2000-01-01T00:30:42.000Z</time></trkpt><trkpt lat="45.12725" lon="5.88931"><time>2000-01-01T00:30:52.000Z</time></trkpt><trkpt lat="45.12736" lon="5.88921"><ele>1836</ele><time>2000-01-01T00:31:02.000Z</time></trkpt><trkpt lat="45.12737" lon="5.88901"><time>2000-01-01T00:31:12.000Z</time></trkpt><trkpt lat="45.12742" lon="5.88891"><ele>1832</ele><time>2000-01-01T00:31:22.000Z</time></trkpt><trkpt lat="45.12767" lon="5.88873"><ele>1828</ele><time>2000-01-01T00:31:32.000Z</time></trkpt><trkpt lat="45.12769" lon="5.88867"><time>2000-01-01T00:31:42.000Z</time></trkpt><trkpt lat="45.12767" lon="5.88852"><time>2000-01-01T00:31:52.000Z</time></trkpt><trkpt lat="45.12762" lon="5.88827"><ele>1833</ele><time>2000-01-01T00:32:02.000Z</time></trkpt><trkpt lat="45.12743" lon="5.88769"><ele>1829</ele><time>2000-01-01T00:32:12.000Z</time></trkpt><trkpt lat="45.12735" lon="5.8873"><ele>1826</ele><time>2000-01-01T00:32:22.000Z</time></trkpt><trkpt lat="45.12721" lon="5.88667"><ele>1826</ele><time>2000-01-01T00:32:32.000Z</time></trkpt><trkpt lat="45.12718" lon="5.88634"><ele>1823</ele><time>2000-01-01T00:32:42.000Z</time></trkpt><trkpt lat="45.12722" lon="5.88607"><ele>1820</ele><time>2000-01-01T00:32:52.000Z</time></trkpt><trkpt lat="45.12727" lon="5.8858"><ele>1816</ele><time>2000-01-01T00:33:02.000Z</time></trkpt><trkpt lat="45.12739" lon="5.88547"><ele>1813</ele><time>2000-01-01T00:33:12.000Z</time></trkpt><trkpt lat="45.1274" lon="5.88547"><time>2000-01-01T00:33:22.000Z</time></trkpt><trkpt lat="45.1275" lon="5.88549"><time>2000-01-01T00:33:32.000Z</time></trkpt><trkpt lat="45.12765" lon="5.88546"><ele>1810</ele><time>2000-01-01T00:33:42.000Z</time></trkpt><trkpt lat="45.12793" lon="5.88534"><ele>1809</ele><time>2000-01-01T00:33:52.000Z</time></trkpt><trkpt lat="45.12801" lon="5.88531"><time>2000-01-01T00:34:02.000Z</time></trkpt><trkpt lat="45.12822" lon="5.88517"><ele>1801</ele><time>2000-01-01T00:34:12.000Z</time></trkpt><trkpt lat="45.12834" lon="5.8851"><time>2000-01-01T00:34:22.000Z</time></trkpt><trkpt lat="45.12843" lon="5.88511"><ele>1801</ele><time>2000-01-01T00:34:32.000Z</time></trkpt><trkpt lat="45.12851" lon="5.88508"><time>2000-01-01T00:34:42.000Z</time></trkpt><trkpt lat="45.12855" lon="5.88509"><time>2000-01-01T00:34:52.000Z</time></trkpt><trkpt lat="45.12872" lon="5.88503"><ele>1801</ele><time>2000-01-01T00:35:02.000Z</time></trkpt><trkpt lat="45.12884" lon="5.88496"><time>2000-01-01T00:35:12.000Z</time></trkpt><trkpt lat="45.12901" lon="5.88488"><ele>1804</ele><time>2000-01-01T00:35:22.000Z</time></trkpt><trkpt lat="45.12915" lon="5.8847"><time>2000-01-01T00:35:32.000Z</time></trkpt><trkpt lat="45.12921" lon="5.88467"><ele>1808</ele><time>2000-01-01T00:35:42.000Z</time></trkpt><trkpt lat="45.12932" lon="5.88467"><time>2000-01-01T00:35:52.000Z</time></trkpt><trkpt lat="45.12936" lon="5.88473"><time>2000-01-01T00:36:02.000Z</time></trkpt><trkpt lat="45.12946" lon="5.88484"><ele>1810</ele><time>2000-01-01T00:36:12.000Z</time></trkpt><trkpt lat="45.12955" lon="5.88494"><time>2000-01-01T00:36:22.000Z</time></trkpt><trkpt lat="45.12959" lon="5.88508"><ele>1811</ele><time>2000-01-01T00:36:32.000Z</time></trkpt><trkpt lat="45.12976" lon="5.88543"><ele>1801</ele><time>2000-01-01T00:36:42.000Z</time></trkpt><trkpt lat="45.12984" lon="5.88564"><time>2000-01-01T00:36:52.000Z</time></trkpt><trkpt lat="45.1299" lon="5.88585"><ele>1792</ele><time>2000-01-01T00:37:02.000Z</time></trkpt><trkpt lat="45.13" lon="5.88632"><ele>1791</ele><time>2000-01-01T00:37:12.000Z</time></trkpt><trkpt lat="45.13" lon="5.88655"><time>2000-01-01T00:37:22.000Z</time></trkpt><trkpt lat="45.13009" lon="5.88706"><ele>1789</ele><time>2000-01-01T00:37:32.000Z</time></trkpt><trkpt lat="45.13007" lon="5.88714"><time>2000-01-01T00:37:42.000Z</time></trkpt><trkpt lat="45.12992" lon="5.8873"><ele>1794</ele><time>2000-01-01T00:37:52.000Z</time></trkpt><trkpt lat="45.12971" lon="5.88762"><ele>1799</ele><time>2000-01-01T00:38:02.000Z</time></trkpt><trkpt lat="45.12957" lon="5.88797"><ele>1794</ele><time>2000-01-01T00:38:12.000Z</time></trkpt><trkpt lat="45.1296" lon="5.88802"><time>2000-01-01T00:38:22.000Z</time></trkpt><trkpt lat="45.1296" lon="5.88808"><time>2000-01-01T00:38:32.000Z</time></trkpt><trkpt lat="45.12954" lon="5.88823"><ele>1790</ele><time>2000-01-01T00:38:42.000Z</time></trkpt><trkpt lat="45.12951" lon="5.88839"><time>2000-01-01T00:38:52.000Z</time></trkpt><trkpt lat="45.12958" lon="5.88852"><ele>1776</ele><time>2000-01-01T00:39:02.000Z</time></trkpt><trkpt lat="45.12962" lon="5.88864"><time>2000-01-01T00:39:12.000Z</time></trkpt><trkpt lat="45.1296" lon="5.88872"><time>2000-01-01T00:39:22.000Z</time></trkpt><trkpt lat="45.12954" lon="5.88884"><ele>1770</ele><time>2000-01-01T00:39:32.000Z</time></trkpt><trkpt lat="45.1295" lon="5.88897"><time>2000-01-01T00:39:42.000Z</time></trkpt><trkpt lat="45.12947" lon="5.88913"><ele>1769</ele><time>2000-01-01T00:39:52.000Z</time></trkpt><trkpt lat="45.12947" lon="5.88928"><time>2000-01-01T00:40:02.000Z</time></trkpt><trkpt lat="45.12948" lon="5.88949"><ele>1770</ele><time>2000-01-01T00:40:12.000Z</time></trkpt><trkpt lat="45.12953" lon="5.88969"><time>2000-01-01T00:40:22.000Z</time></trkpt><trkpt lat="45.12957" lon="5.8898"><ele>1766</ele><time>2000-01-01T00:40:32.000Z</time></trkpt><trkpt lat="45.12974" lon="5.88993"><ele>1763</ele><time>2000-01-01T00:40:42.000Z</time></trkpt><trkpt lat="45.12987" lon="5.89002"><time>2000-01-01T00:40:52.000Z</time></trkpt><trkpt lat="45.13001" lon="5.89024"><ele>1758</ele><time>2000-01-01T00:41:02.000Z</time></trkpt><trkpt lat="45.1302" lon="5.89037"><ele>1758</ele><time>2000-01-01T00:41:12.000Z</time></trkpt><trkpt lat="45.13032" lon="5.89042"><time>2000-01-01T00:41:22.000Z</time></trkpt><trkpt lat="45.13051" lon="5.89053"><ele>1765</ele><time>2000-01-01T00:41:32.000Z</time></trkpt><trkpt lat="45.13062" lon="5.89058"><time>2000-01-01T00:41:42.000Z</time></trkpt><trkpt lat="45.13086" lon="5.89084"><ele>1769</ele><time>2000-01-01T00:41:52.000Z</time></trkpt><trkpt lat="45.13095" lon="5.89097"><time>2000-01-01T00:42:02.000Z</time></trkpt><trkpt lat="45.1311" lon="5.89116"><ele>1774</ele><time>2000-01-01T00:42:12.000Z</time></trkpt><trkpt lat="45.13117" lon="5.89128"><time>2000-01-01T00:42:22.000Z</time></trkpt><trkpt lat="45.13128" lon="5.89146"><ele>1773</ele><time>2000-01-01T00:42:32.000Z</time></trkpt><trkpt lat="45.13137" lon="5.89159"><time>2000-01-01T00:42:42.000Z</time></trkpt><trkpt lat="45.13157" lon="5.89189"><ele>1773</ele><time>2000-01-01T00:42:52.000Z</time></trkpt><trkpt lat="45.13168" lon="5.89215"><ele>1772</ele><time>2000-01-01T00:43:02.000Z</time></trkpt><trkpt lat="45.13172" lon="5.89229"><time>2000-01-01T00:43:12.000Z</time></trkpt><trkpt lat="45.1319" lon="5.89261"><ele>1771</ele><time>2000-01-01T00:43:22.000Z</time></trkpt><trkpt lat="45.13202" lon="5.89271"><time>2000-01-01T00:43:32.000Z</time></trkpt><trkpt lat="45.13205" lon="5.89277"><ele>1770</ele><time>2000-01-01T00:43:42.000Z</time></trkpt><trkpt lat="45.13216" lon="5.89285"><time>2000-01-01T00:43:52.000Z</time></trkpt><trkpt lat="45.13222" lon="5.89297"><ele>1756</ele><time>2000-01-01T00:44:02.000Z</time></trkpt><trkpt lat="45.13232" lon="5.89309"><time>2000-01-01T00:44:12.000Z</time></trkpt><trkpt lat="45.13246" lon="5.89325"><ele>1762</ele><time>2000-01-01T00:44:22.000Z</time></trkpt><trkpt lat="45.13252" lon="5.89338"><time>2000-01-01T00:44:32.000Z</time></trkpt><trkpt lat="45.13257" lon="5.8934"><time>2000-01-01T00:44:42.000Z</time></trkpt><trkpt lat="45.13266" lon="5.89356"><ele>1763</ele><time>2000-01-01T00:44:52.000Z</time></trkpt><trkpt lat="45.13272" lon="5.89364"><time>2000-01-01T00:45:02.000Z</time></trkpt><trkpt lat="45.13279" lon="5.89369"><time>2000-01-01T00:45:12.000Z</time></trkpt><trkpt lat="45.13292" lon="5.89386"><ele>1763</ele><time>2000-01-01T00:45:22.000Z</time></trkpt><trkpt lat="45.1331" lon="5.89416"><ele>1763</ele><time>2000-01-01T00:45:32.000Z</time></trkpt><trkpt lat="45.13309" lon="5.89419"><time>2000-01-01T00:45:42.000Z</time></trkpt><trkpt lat="45.13319" lon="5.89443"><ele>1765</ele><time>2000-01-01T00:45:52.000Z</time></trkpt><trkpt lat="45.13322" lon="5.89457"><time>2000-01-01T00:46:02.000Z</time></trkpt><trkpt lat="45.13333" lon="5.89481"><ele>1767</ele><time>2000-01-01T00:46:12.000Z</time></trkpt><trkpt lat="45.13345" lon="5.89502"><time>2000-01-01T00:46:22.000Z</time></trkpt><trkpt lat="45.13352" lon="5.89513"><ele>1773</ele><time>2000-01-01T00:46:32.000Z</time></trkpt><trkpt lat="45.13371" lon="5.89527"><ele>1774</ele><time>2000-01-01T00:46:42.000Z</time></trkpt><trkpt lat="45.13376" lon="5.89541"><time>2000-01-01T00:46:52.000Z</time></trkpt><trkpt lat="45.13385" lon="5.89555"><ele>1776</ele><time>2000-01-01T00:47:02.000Z</time></trkpt><trkpt lat="45.134" lon="5.8957"><time>2000-01-01T00:47:12.000Z</time></trkpt><trkpt lat="45.1342" lon="5.89595"><ele>1781</ele><time>2000-01-01T00:47:22.000Z</time></trkpt><trkpt lat="45.13423" lon="5.89602"><time>2000-01-01T00:47:32.000Z</time></trkpt><trkpt lat="45.13427" lon="5.89607"><time>2000-01-01T00:47:42.000Z</time></trkpt><trkpt lat="45.1343" lon="5.89618"><ele>1786</ele><time>2000-01-01T00:47:52.000Z</time></trkpt><trkpt lat="45.13435" lon="5.89625"><time>2000-01-01T00:48:02.000Z</time></trkpt><trkpt lat="45.13438" lon="5.8964"><time>2000-01-01T00:48:12.000Z</time></trkpt><trkpt lat="45.13437" lon="5.8965"><ele>1787</ele><time>2000-01-01T00:48:22.000Z</time></trkpt><trkpt lat="45.1344" lon="5.89667"><time>2000-01-01T00:48:32.000Z</time></trkpt><trkpt lat="45.13446" lon="5.89681"><ele>1787</ele><time>2000-01-01T00:48:42.000Z</time></trkpt><trkpt lat="45.13457" lon="5.89693"><time>2000-01-01T00:48:52.000Z</time></trkpt><trkpt lat="45.13472" lon="5.89709"><ele>1787</ele><time>2000-01-01T00:49:02.000Z</time></trkpt><trkpt lat="45.13476" lon="5.89725"><time>2000-01-01T00:49:12.000Z</time></trkpt><trkpt lat="45.1348" lon="5.89738"><ele>1789</ele><time>2000-01-01T00:49:22.000Z</time></trkpt><trkpt lat="45.13486" lon="5.89744"><time>2000-01-01T00:49:32.000Z</time></trkpt><trkpt lat="45.13489" lon="5.89748"><time>2000-01-01T00:49:42.000Z</time></trkpt><trkpt lat="45.13497" lon="5.89769"><ele>1791</ele><time>2000-01-01T00:49:52.000Z</time></trkpt><trkpt lat="45.13498" lon="5.89785"><time>2000-01-01T00:50:02.000Z</time></trkpt><trkpt lat="45.13509" lon="5.89809"><ele>1787</ele><time>2000-01-01T00:50:12.000Z</time></trkpt><trkpt lat="45.13509" lon="5.89813"><time>2000-01-01T00:50:22.000Z</time></trkpt><trkpt lat="45.13514" lon="5.89815"><time>2000-01-01T00:50:32.000Z</time></trkpt><trkpt lat="45.13518" lon="5.89816"><time>2000-01-01T00:50:42.000Z</time></trkpt><trkpt lat="45.13522" lon="5.89822"><time>2000-01-01T00:50:52.000Z</time></trkpt><trkpt lat="45.13522" lon="5.89828"><ele>1784</ele><time>2000-01-01T00:51:02.000Z</time></trkpt><trkpt lat="45.13526" lon="5.89834"><time>2000-01-01T00:51:12.000Z</time></trkpt><trkpt lat="45.13526" lon="5.89836"><time>2000-01-01T00:51:22.000Z</time></trkpt><trkpt lat="45.13528" lon="5.89839"><time>2000-01-01T00:51:32.000Z</time></trkpt><trkpt lat="45.1353" lon="5.89846"><time>2000-01-01T00:51:42.000Z</time></trkpt><trkpt lat="45.13534" lon="5.89855"><ele>1781</ele><time>2000-01-01T00:51:52.000Z</time></trkpt><trkpt lat="45.13536" lon="5.89858"><time>2000-01-01T00:52:02.000Z</time></trkpt><trkpt lat="45.13537" lon="5.8986"><time>2000-01-01T00:52:12.000Z</time></trkpt><trkpt lat="45.13537" lon="5.89864"><time>2000-01-01T00:52:22.000Z</time></trkpt><trkpt lat="45.13537" lon="5.89865"><time>2000-01-01T00:52:32.000Z</time></trkpt><trkpt lat="45.13539" lon="5.89866"><time>2000-01-01T00:52:42.000Z</time></trkpt><trkpt lat="45.13541" lon="5.89868"><time>2000-01-01T00:52:52.000Z</time></trkpt><trkpt lat="45.13542" lon="5.89874"><time>2000-01-01T00:53:02.000Z</time></trkpt><trkpt lat="45.13544" lon="5.89878"><ele>1781</ele><time>2000-01-01T00:53:12.000Z</time></trkpt><trkpt lat="45.13549" lon="5.89882"><time>2000-01-01T00:53:22.000Z</time></trkpt><trkpt lat="45.1355" lon="5.89887"><time>2000-01-01T00:53:32.000Z</time></trkpt><trkpt lat="45.13551" lon="5.89891"><time>2000-01-01T00:53:42.000Z</time></trkpt><trkpt lat="45.13553" lon="5.89899"><time>2000-01-01T00:53:52.000Z</time></trkpt><trkpt lat="45.13557" lon="5.89911"><ele>1767</ele><time>2000-01-01T00:54:02.000Z</time></trkpt><trkpt lat="45.13559" lon="5.89919"><time>2000-01-01T00:54:12.000Z</time></trkpt><trkpt lat="45.13559" lon="5.89922"><time>2000-01-01T00:54:22.000Z</time></trkpt><trkpt lat="45.13556" lon="5.89923"><time>2000-01-01T00:54:32.000Z</time></trkpt><trkpt lat="45.13551" lon="5.89923"><time>2000-01-01T00:54:42.000Z</time></trkpt><trkpt lat="45.13551" lon="5.89923"><time>2000-01-01T00:54:52.000Z</time></trkpt><trkpt lat="45.13548" lon="5.89931"><ele>1767</ele><time>2000-01-01T00:55:02.000Z</time></trkpt><trkpt lat="45.13544" lon="5.89932"><time>2000-01-01T00:55:12.000Z</time></trkpt><trkpt lat="45.13543" lon="5.89935"><time>2000-01-01T00:55:22.000Z</time></trkpt><trkpt lat="45.13541" lon="5.89936"><time>2000-01-01T00:55:32.000Z</time></trkpt><trkpt lat="45.13536" lon="5.89949"><ele>1767</ele><time>2000-01-01T00:55:42.000Z</time></trkpt><trkpt lat="45.13529" lon="5.89962"><time>2000-01-01T00:55:52.000Z</time></trkpt><trkpt lat="45.13527" lon="5.89967"><time>2000-01-01T00:56:02.000Z</time></trkpt><trkpt lat="45.13525" lon="5.89975"><ele>1765</ele><time>2000-01-01T00:56:12.000Z</time></trkpt><trkpt lat="45.1352" lon="5.89985"><time>2000-01-01T00:56:22.000Z</time></trkpt><trkpt lat="45.13519" lon="5.90003"><ele>1763</ele><time>2000-01-01T00:56:32.000Z</time></trkpt><trkpt lat="45.1352" lon="5.90016"><time>2000-01-01T00:56:42.000Z</time></trkpt><trkpt lat="45.13526" lon="5.90024"><time>2000-01-01T00:56:52.000Z</time></trkpt><trkpt lat="45.13535" lon="5.90034"><ele>1765</ele><time>2000-01-01T00:57:02.000Z</time></trkpt><trkpt lat="45.13537" lon="5.9004"><time>2000-01-01T00:57:12.000Z</time></trkpt><trkpt lat="45.1354" lon="5.90047"><time>2000-01-01T00:57:22.000Z</time></trkpt><trkpt lat="45.13543" lon="5.90058"><time>2000-01-01T00:57:32.000Z</time></trkpt><trkpt lat="45.13546" lon="5.90063"><ele>1767</ele><time>2000-01-01T00:57:42.000Z</time></trkpt><trkpt lat="45.13546" lon="5.90076"><time>2000-01-01T00:57:52.000Z</time></trkpt><trkpt lat="45.13545" lon="5.90079"><time>2000-01-01T00:58:02.000Z</time></trkpt><trkpt lat="45.13548" lon="5.90089"><ele>1772</ele><time>2000-01-01T00:58:12.000Z</time></trkpt><trkpt lat="45.13551" lon="5.90096"><time>2000-01-01T00:58:22.000Z</time></trkpt><trkpt lat="45.13548" lon="5.90098"><time>2000-01-01T00:58:32.000Z</time></trkpt><trkpt lat="45.13549" lon="5.90099"><time>2000-01-01T00:58:42.000Z</time></trkpt><trkpt lat="45.13547" lon="5.90101"><time>2000-01-01T00:58:52.000Z</time></trkpt><trkpt lat="45.1355" lon="5.90102"><time>2000-01-01T00:59:02.000Z</time></trkpt><trkpt lat="45.1355" lon="5.90103"><time>2000-01-01T00:59:12.000Z</time></trkpt><trkpt lat="45.13548" lon="5.90105"><time>2000-01-01T00:59:22.000Z</time></trkpt><trkpt lat="45.13545" lon="5.90105"><ele>1777</ele><time>2000-01-01T00:59:32.000Z</time></trkpt><trkpt lat="45.13543" lon="5.90108"><time>2000-01-01T00:59:42.000Z</time></trkpt><trkpt lat="45.13544" lon="5.90113"><time>2000-01-01T00:59:52.000Z</time></trkpt><trkpt lat="45.13546" lon="5.90114"><time>2000-01-01T01:00:02.000Z</time></trkpt><trkpt lat="45.13548" lon="5.90116"><time>2000-01-01T01:00:12.000Z</time></trkpt><trkpt lat="45.13549" lon="5.90118"><time>2000-01-01T01:00:22.000Z</time></trkpt><trkpt lat="45.13549" lon="5.90122"><time>2000-01-01T01:00:32.000Z</time></trkpt><trkpt lat="45.13548" lon="5.90125"><time>2000-01-01T01:00:42.000Z</time></trkpt><trkpt lat="45.13544" lon="5.90127"><ele>1777</ele><time>2000-01-01T01:00:52.000Z</time></trkpt><trkpt lat="45.13543" lon="5.90128"><time>2000-01-01T01:01:02.000Z</time></trkpt><trkpt lat="45.1354" lon="5.90127"><time>2000-01-01T01:01:12.000Z</time></trkpt><trkpt lat="45.13539" lon="5.90128"><time>2000-01-01T01:01:22.000Z</time></trkpt><trkpt lat="45.13539" lon="5.90134"><time>2000-01-01T01:01:32.000Z</time></trkpt><trkpt lat="45.13537" lon="5.90135"><time>2000-01-01T01:01:42.000Z</time></trkpt><trkpt lat="45.13536" lon="5.90131"><time>2000-01-01T01:01:52.000Z</time></trkpt><trkpt lat="45.13534" lon="5.90129"><time>2000-01-01T01:02:02.000Z</time></trkpt><trkpt lat="45.13532" lon="5.90128"><time>2000-01-01T01:02:12.000Z</time></trkpt><trkpt lat="45.1353" lon="5.90127"><ele>1777</ele><time>2000-01-01T01:02:22.000Z</time></trkpt><trkpt lat="45.13522" lon="5.90127"><time>2000-01-01T01:02:32.000Z</time></trkpt><trkpt lat="45.13522" lon="5.90128"><time>2000-01-01T01:02:42.000Z</time></trkpt><trkpt lat="45.13521" lon="5.90132"><time>2000-01-01T01:02:52.000Z</time></trkpt><trkpt lat="45.13523" lon="5.90137"><time>2000-01-01T01:03:02.000Z</time></trkpt><trkpt lat="45.13526" lon="5.90148"><ele>1785</ele><time>2000-01-01T01:03:12.000Z</time></trkpt><trkpt lat="45.13527" lon="5.90149"><time>2000-01-01T01:03:22.000Z</time></trkpt><trkpt lat="45.13529" lon="5.90151"><time>2000-01-01T01:03:32.000Z</time></trkpt><trkpt lat="45.13529" lon="5.90154"><time>2000-01-01T01:03:42.000Z</time></trkpt><trkpt lat="45.13531" lon="5.90155"><time>2000-01-01T01:03:52.000Z</time></trkpt><trkpt lat="45.13531" lon="5.90158"><time>2000-01-01T01:04:02.000Z</time></trkpt><trkpt lat="45.13523" lon="5.90165"><ele>1794</ele><time>2000-01-01T01:04:12.000Z</time></trkpt><trkpt lat="45.13524" lon="5.90168"><time>2000-01-01T01:04:22.000Z</time></trkpt><trkpt lat="45.13525" lon="5.9017"><time>2000-01-01T01:04:32.000Z</time></trkpt><trkpt lat="45.13522" lon="5.90174"><time>2000-01-01T01:04:42.000Z</time></trkpt><trkpt lat="45.13522" lon="5.90174"><time>2000-01-01T01:04:52.000Z</time></trkpt><trkpt lat="45.13521" lon="5.90184"><time>2000-01-01T01:05:02.000Z</time></trkpt><trkpt lat="45.13519" lon="5.90188"><ele>1800</ele><time>2000-01-01T01:05:12.000Z</time></trkpt><trkpt lat="45.13513" lon="5.90196"><time>2000-01-01T01:05:22.000Z</time></trkpt><trkpt lat="45.1351" lon="5.90205"><time>2000-01-01T01:05:32.000Z</time></trkpt><trkpt lat="45.13509" lon="5.9021"><time>2000-01-01T01:05:42.000Z</time></trkpt><trkpt lat="45.13507" lon="5.90214"><ele>1807</ele><time>2000-01-01T01:05:52.000Z</time></trkpt><trkpt lat="45.13505" lon="5.90215"><time>2000-01-01T01:06:02.000Z</time></trkpt><trkpt lat="45.135" lon="5.90221"><time>2000-01-01T01:06:12.000Z</time></trkpt><trkpt lat="45.13497" lon="5.90225"><time>2000-01-01T01:06:22.000Z</time></trkpt><trkpt lat="45.13493" lon="5.90227"><time>2000-01-01T01:06:32.000Z</time></trkpt><trkpt lat="45.13491" lon="5.90231"><ele>1807</ele><time>2000-01-01T01:06:42.000Z</time></trkpt><trkpt lat="45.13486" lon="5.90234"><time>2000-01-01T01:06:52.000Z</time></trkpt><trkpt lat="45.13485" lon="5.90234"><time>2000-01-01T01:07:02.000Z</time></trkpt><trkpt lat="45.13479" lon="5.90234"><time>2000-01-01T01:07:12.000Z</time></trkpt><trkpt lat="45.13479" lon="5.90235"><time>2000-01-01T01:07:22.000Z</time></trkpt><trkpt lat="45.13478" lon="5.90236"><time>2000-01-01T01:07:32.000Z</time></trkpt><trkpt lat="45.13477" lon="5.90237"><time>2000-01-01T01:07:42.000Z</time></trkpt><trkpt lat="45.13477" lon="5.9024"><time>2000-01-01T01:07:52.000Z</time></trkpt><trkpt lat="45.13475" lon="5.9025"><ele>1809</ele><time>2000-01-01T01:08:02.000Z</time></trkpt><trkpt lat="45.13475" lon="5.90257"><time>2000-01-01T01:08:12.000Z</time></trkpt><trkpt lat="45.13474" lon="5.90261"><time>2000-01-01T01:08:22.000Z</time></trkpt><trkpt lat="45.13474" lon="5.90276"><time>2000-01-01T01:08:32.000Z</time></trkpt><trkpt lat="45.13473" lon="5.90284"><ele>1808</ele><time>2000-01-01T01:08:42.000Z</time></trkpt><trkpt lat="45.13471" lon="5.90297"><time>2000-01-01T01:08:52.000Z</time></trkpt><trkpt lat="45.13474" lon="5.90312"><ele>1808</ele><time>2000-01-01T01:09:02.000Z</time></trkpt><trkpt lat="45.13477" lon="5.90318"><time>2000-01-01T01:09:12.000Z</time></trkpt><trkpt lat="45.13478" lon="5.90322"><time>2000-01-01T01:09:22.000Z</time></trkpt><trkpt lat="45.13477" lon="5.9033"><time>2000-01-01T01:09:32.000Z</time></trkpt><trkpt lat="45.13475" lon="5.90343"><ele>1810</ele><time>2000-01-01T01:09:42.000Z</time></trkpt><trkpt lat="45.13475" lon="5.90349"><time>2000-01-01T01:09:52.000Z</time></trkpt><trkpt lat="45.13475" lon="5.90363"><time>2000-01-01T01:10:02.000Z</time></trkpt><trkpt lat="45.13472" lon="5.9038"><ele>1812</ele><time>2000-01-01T01:10:12.000Z</time></trkpt><trkpt lat="45.1347" lon="5.90389"><time>2000-01-01T01:10:22.000Z</time></trkpt><trkpt lat="45.13469" lon="5.90407"><ele>1812</ele><time>2000-01-01T01:10:32.000Z</time></trkpt><trkpt lat="45.13468" lon="5.90414"><time>2000-01-01T01:10:42.000Z</time></trkpt><trkpt lat="45.13467" lon="5.90417"><time>2000-01-01T01:10:52.000Z</time></trkpt><trkpt lat="45.13465" lon="5.90419"><time>2000-01-01T01:11:02.000Z</time></trkpt><trkpt lat="45.13462" lon="5.90417"><time>2000-01-01T01:11:12.000Z</time></trkpt><trkpt lat="45.13461" lon="5.90414"><time>2000-01-01T01:11:22.000Z</time></trkpt><trkpt lat="45.13459" lon="5.90413"><time>2000-01-01T01:11:32.000Z</time></trkpt><trkpt lat="45.13458" lon="5.90416"><ele>1829</ele><time>2000-01-01T01:11:42.000Z</time></trkpt><trkpt lat="45.13455" lon="5.90423"><time>2000-01-01T01:11:52.000Z</time></trkpt><trkpt lat="45.13454" lon="5.90429"><time>2000-01-01T01:12:02.000Z</time></trkpt><trkpt lat="45.13456" lon="5.90438"><time>2000-01-01T01:12:12.000Z</time></trkpt><trkpt lat="45.13459" lon="5.90447"><ele>1837</ele><time>2000-01-01T01:12:22.000Z</time></trkpt><trkpt lat="45.13457" lon="5.90452"><time>2000-01-01T01:12:32.000Z</time></trkpt><trkpt lat="45.13457" lon="5.90458"><time>2000-01-01T01:12:42.000Z</time></trkpt><trkpt lat="45.13454" lon="5.90461"><time>2000-01-01T01:12:52.000Z</time></trkpt><trkpt lat="45.13455" lon="5.90465"><time>2000-01-01T01:13:02.000Z</time></trkpt><trkpt lat="45.13455" lon="5.90467"><time>2000-01-01T01:13:12.000Z</time></trkpt><trkpt lat="45.13457" lon="5.90471"><ele>1846</ele><time>2000-01-01T01:13:22.000Z</time></trkpt><trkpt lat="45.13457" lon="5.90477"><time>2000-01-01T01:13:32.000Z</time></trkpt><trkpt lat="45.13455" lon="5.90482"><time>2000-01-01T01:13:42.000Z</time></trkpt><trkpt lat="45.1345" lon="5.90487"><time>2000-01-01T01:13:52.000Z</time></trkpt><trkpt lat="45.1345" lon="5.9049"><time>2000-01-01T01:14:02.000Z</time></trkpt><trkpt lat="45.13452" lon="5.90502"><ele>1853</ele><time>2000-01-01T01:14:12.000Z</time></trkpt><trkpt lat="45.13452" lon="5.90511"><time>2000-01-01T01:14:22.000Z</time></trkpt><trkpt lat="45.13452" lon="5.90515"><time>2000-01-01T01:14:32.000Z</time></trkpt><trkpt lat="45.13451" lon="5.90519"><time>2000-01-01T01:14:42.000Z</time></trkpt><trkpt lat="45.13451" lon="5.90526"><time>2000-01-01T01:14:52.000Z</time></trkpt><trkpt lat="45.13451" lon="5.90529"><ele>1859</ele><time>2000-01-01T01:15:02.000Z</time></trkpt><trkpt lat="45.13451" lon="5.90534"><time>2000-01-01T01:15:12.000Z</time></trkpt><trkpt lat="45.13451" lon="5.90538"><time>2000-01-01T01:15:22.000Z</time></trkpt><trkpt lat="45.1345" lon="5.9054"><time>2000-01-01T01:15:32.000Z</time></trkpt><trkpt lat="45.13452" lon="5.90545"><time>2000-01-01T01:15:42.000Z</time></trkpt><trkpt lat="45.13454" lon="5.90549"><time>2000-01-01T01:15:52.000Z</time></trkpt><trkpt lat="45.13454" lon="5.90556"><ele>1865</ele><time>2000-01-01T01:16:02.000Z</time></trkpt><trkpt lat="45.13454" lon="5.90559"><time>2000-01-01T01:16:12.000Z</time></trkpt><trkpt lat="45.13452" lon="5.90567"><time>2000-01-01T01:16:22.000Z</time></trkpt><trkpt lat="45.13449" lon="5.90576"><time>2000-01-01T01:16:32.000Z</time></trkpt><trkpt lat="45.13447" lon="5.90577"><time>2000-01-01T01:16:42.000Z</time></trkpt><trkpt lat="45.13446" lon="5.90593"><ele>1869</ele><time>2000-01-01T01:16:52.000Z</time></trkpt><trkpt lat="45.13446" lon="5.90596"><time>2000-01-01T01:17:02.000Z</time></trkpt><trkpt lat="45.13438" lon="5.90608"><time>2000-01-01T01:17:12.000Z</time></trkpt><trkpt lat="45.13437" lon="5.90611"><time>2000-01-01T01:17:22.000Z</time></trkpt><trkpt lat="45.13434" lon="5.90618"><ele>1874</ele><time>2000-01-01T01:17:32.000Z</time></trkpt><trkpt lat="45.1343" lon="5.90622"><time>2000-01-01T01:17:42.000Z</time></trkpt><trkpt lat="45.13428" lon="5.90624"><time>2000-01-01T01:17:52.000Z</time></trkpt><trkpt lat="45.13427" lon="5.90628"><time>2000-01-01T01:18:02.000Z</time></trkpt><trkpt lat="45.13424" lon="5.90636"><time>2000-01-01T01:18:12.000Z</time></trkpt><trkpt lat="45.13422" lon="5.90644"><ele>1879</ele><time>2000-01-01T01:18:22.000Z</time></trkpt><trkpt lat="45.13424" lon="5.90653"><time>2000-01-01T01:18:32.000Z</time></trkpt><trkpt lat="45.13423" lon="5.90657"><time>2000-01-01T01:18:42.000Z</time></trkpt><trkpt lat="45.13422" lon="5.90663"><time>2000-01-01T01:18:52.000Z</time></trkpt><trkpt lat="45.13421" lon="5.90669"><time>2000-01-01T01:19:02.000Z</time></trkpt><trkpt lat="45.13421" lon="5.90672"><ele>1885</ele><time>2000-01-01T01:19:12.000Z</time></trkpt><trkpt lat="45.13426" lon="5.90681"><time>2000-01-01T01:19:22.000Z</time></trkpt><trkpt lat="45.13431" lon="5.90688"><time>2000-01-01T01:19:32.000Z</time></trkpt><trkpt lat="45.13438" lon="5.90707"><ele>1891</ele><time>2000-01-01T01:19:42.000Z</time></trkpt><trkpt lat="45.13439" lon="5.90713"><time>2000-01-01T01:19:52.000Z</time></trkpt><trkpt lat="45.13438" lon="5.90718"><time>2000-01-01T01:20:02.000Z</time></trkpt><trkpt lat="45.13438" lon="5.90723"><time>2000-01-01T01:20:12.000Z</time></trkpt><trkpt lat="45.13437" lon="5.90726"><time>2000-01-01T01:20:22.000Z</time></trkpt><trkpt lat="45.13438" lon="5.9073"><time>2000-01-01T01:20:32.000Z</time></trkpt><trkpt lat="45.13439" lon="5.90733"><ele>1896</ele><time>2000-01-01T01:20:42.000Z</time></trkpt><trkpt lat="45.13439" lon="5.90742"><time>2000-01-01T01:20:52.000Z</time></trkpt><trkpt lat="45.1344" lon="5.90748"><time>2000-01-01T01:21:02.000Z</time></trkpt><trkpt lat="45.13441" lon="5.90753"><time>2000-01-01T01:21:12.000Z</time></trkpt><trkpt lat="45.13441" lon="5.90758"><time>2000-01-01T01:21:22.000Z</time></trkpt><trkpt lat="45.13441" lon="5.90762"><ele>1901</ele><time>2000-01-01T01:21:32.000Z</time></trkpt><trkpt lat="45.13439" lon="5.90771"><time>2000-01-01T01:21:42.000Z</time></trkpt><trkpt lat="45.13439" lon="5.90778"><time>2000-01-01T01:21:52.000Z</time></trkpt><trkpt lat="45.13443" lon="5.90792"><ele>1906</ele><time>2000-01-01T01:22:02.000Z</time></trkpt><trkpt lat="45.13445" lon="5.90803"><time>2000-01-01T01:22:12.000Z</time></trkpt><trkpt lat="45.13446" lon="5.90811"><time>2000-01-01T01:22:22.000Z</time></trkpt><trkpt lat="45.13446" lon="5.90814"><time>2000-01-01T01:22:32.000Z</time></trkpt><trkpt lat="45.13451" lon="5.90824"><ele>1910</ele><time>2000-01-01T01:22:42.000Z</time></trkpt><trkpt lat="45.13452" lon="5.90826"><time>2000-01-01T01:22:52.000Z</time></trkpt><trkpt lat="45.13451" lon="5.9083"><time>2000-01-01T01:23:02.000Z</time></trkpt><trkpt lat="45.13452" lon="5.90833"><time>2000-01-01T01:23:12.000Z</time></trkpt><trkpt lat="45.13451" lon="5.90842"><time>2000-01-01T01:23:22.000Z</time></trkpt><trkpt lat="45.13451" lon="5.9085"><time>2000-01-01T01:23:32.000Z</time></trkpt><trkpt lat="45.13452" lon="5.90854"><ele>1914</ele><time>2000-01-01T01:23:42.000Z</time></trkpt><trkpt lat="45.1345" lon="5.90859"><time>2000-01-01T01:23:52.000Z</time></trkpt><trkpt lat="45.13448" lon="5.9087"><time>2000-01-01T01:24:02.000Z</time></trkpt><trkpt lat="45.13448" lon="5.90884"><ele>1920</ele><time>2000-01-01T01:24:12.000Z</time></trkpt><trkpt lat="45.13445" lon="5.90887"><time>2000-01-01T01:24:22.000Z</time></trkpt><trkpt lat="45.13444" lon="5.90888"><time>2000-01-01T01:24:32.000Z</time></trkpt><trkpt lat="45.13444" lon="5.90889"><time>2000-01-01T01:24:42.000Z</time></trkpt><trkpt lat="45.13444" lon="5.90893"><time>2000-01-01T01:24:52.000Z</time></trkpt><trkpt lat="45.13444" lon="5.90898"><time>2000-01-01T01:25:02.000Z</time></trkpt><trkpt lat="45.13444" lon="5.90899"><time>2000-01-01T01:25:12.000Z</time></trkpt><trkpt lat="45.13443" lon="5.90901"><time>2000-01-01T01:25:22.000Z</time></trkpt><trkpt lat="45.13442" lon="5.90902"><time>2000-01-01T01:25:32.000Z</time></trkpt><trkpt lat="45.13442" lon="5.90904"><time>2000-01-01T01:25:42.000Z</time></trkpt><trkpt lat="45.13443" lon="5.90906"><ele>1920</ele><time>2000-01-01T01:25:52.000Z</time></trkpt><trkpt lat="45.13443" lon="5.90906"><time>2000-01-01T01:26:02.000Z</time></trkpt><trkpt lat="45.13446" lon="5.90908"><time>2000-01-01T01:26:12.000Z</time></trkpt><trkpt lat="45.13448" lon="5.90909"><time>2000-01-01T01:26:22.000Z</time></trkpt><trkpt lat="45.1345" lon="5.90911"><time>2000-01-01T01:26:32.000Z</time></trkpt><trkpt lat="45.13452" lon="5.90912"><time>2000-01-01T01:26:42.000Z</time></trkpt><trkpt lat="45.13456" lon="5.90913"><time>2000-01-01T01:26:52.000Z</time></trkpt><trkpt lat="45.13461" lon="5.90914"><ele>1922</ele><time>2000-01-01T01:27:02.000Z</time></trkpt><trkpt lat="45.13462" lon="5.90914"><time>2000-01-01T01:27:12.000Z</time></trkpt><trkpt lat="45.13464" lon="5.90918"><time>2000-01-01T01:27:22.000Z</time></trkpt><trkpt lat="45.13464" lon="5.90924"><time>2000-01-01T01:27:32.000Z</time></trkpt><trkpt lat="45.13463" lon="5.90927"><time>2000-01-01T01:27:42.000Z</time></trkpt><trkpt lat="45.13461" lon="5.90929"><time>2000-01-01T01:27:52.000Z</time></trkpt><trkpt lat="45.13459" lon="5.90932"><time>2000-01-01T01:28:02.000Z</time></trkpt><trkpt lat="45.13459" lon="5.90934"><time>2000-01-01T01:28:12.000Z</time></trkpt><trkpt lat="45.1346" lon="5.90936"><ele>1924</ele><time>2000-01-01T01:28:22.000Z</time></trkpt><trkpt lat="45.1346" lon="5.90938"><time>2000-01-01T01:28:32.000Z</time></trkpt><trkpt lat="45.13459" lon="5.90941"><time>2000-01-01T01:28:42.000Z</time></trkpt><trkpt lat="45.13458" lon="5.90942"><time>2000-01-01T01:28:52.000Z</time></trkpt><trkpt lat="45.13459" lon="5.90946"><time>2000-01-01T01:29:02.000Z</time></trkpt><trkpt lat="45.13462" lon="5.90953"><time>2000-01-01T01:29:12.000Z</time></trkpt><trkpt lat="45.13464" lon="5.90955"><time>2000-01-01T01:29:22.000Z</time></trkpt><trkpt lat="45.13465" lon="5.90958"><time>2000-01-01T01:29:32.000Z</time></trkpt><trkpt lat="45.13466" lon="5.90963"><ele>1936</ele><time>2000-01-01T01:29:42.000Z</time></trkpt><trkpt lat="45.1347" lon="5.90965"><time>2000-01-01T01:29:52.000Z</time></trkpt><trkpt lat="45.1347" lon="5.90965"><time>2000-01-01T01:30:02.000Z</time></trkpt><trkpt lat="45.13472" lon="5.90967"><time>2000-01-01T01:30:12.000Z</time></trkpt><trkpt lat="45.13475" lon="5.90969"><time>2000-01-01T01:30:22.000Z</time></trkpt><trkpt lat="45.13476" lon="5.9097"><time>2000-01-01T01:30:32.000Z</time></trkpt><trkpt lat="45.1348" lon="5.90971"><time>2000-01-01T01:30:42.000Z</time></trkpt><trkpt lat="45.13481" lon="5.90971"><time>2000-01-01T01:30:52.000Z</time></trkpt><trkpt lat="45.13481" lon="5.90971"><time>2000-01-01T01:31:02.000Z</time></trkpt><trkpt lat="45.13481" lon="5.90973"><time>2000-01-01T01:31:12.000Z</time></trkpt><trkpt lat="45.13483" lon="5.90975"><ele>1936</ele><time>2000-01-01T01:31:22.000Z</time></trkpt><trkpt lat="45.13484" lon="5.90976"><time>2000-01-01T01:31:32.000Z</time></trkpt><trkpt lat="45.13484" lon="5.90979"><time>2000-01-01T01:31:42.000Z</time></trkpt><trkpt lat="45.13484" lon="5.90981"><time>2000-01-01T01:31:52.000Z</time></trkpt><trkpt lat="45.13485" lon="5.90984"><time>2000-01-01T01:32:02.000Z</time></trkpt><trkpt lat="45.13486" lon="5.90988"><time>2000-01-01T01:32:12.000Z</time></trkpt><trkpt lat="45.13486" lon="5.90991"><time>2000-01-01T01:32:22.000Z</time></trkpt><trkpt lat="45.13487" lon="5.90993"><time>2000-01-01T01:32:32.000Z</time></trkpt><trkpt lat="45.13487" lon="5.90995"><time>2000-01-01T01:32:42.000Z</time></trkpt><trkpt lat="45.13488" lon="5.90998"><time>2000-01-01T01:32:52.000Z</time></trkpt><trkpt lat="45.13489" lon="5.90999"><ele>1947</ele><time>2000-01-01T01:33:02.000Z</time></trkpt><trkpt lat="45.13489" lon="5.91003"><time>2000-01-01T01:33:12.000Z</time></trkpt><trkpt lat="45.13491" lon="5.91007"><time>2000-01-01T01:33:22.000Z</time></trkpt><trkpt lat="45.13492" lon="5.91009"><time>2000-01-01T01:33:32.000Z</time></trkpt><trkpt lat="45.13493" lon="5.91013"><time>2000-01-01T01:33:42.000Z</time></trkpt><trkpt lat="45.13494" lon="5.91015"><time>2000-01-01T01:33:52.000Z</time></trkpt><trkpt lat="45.13493" lon="5.91018"><time>2000-01-01T01:34:02.000Z</time></trkpt><trkpt lat="45.13493" lon="5.9102"><time>2000-01-01T01:34:12.000Z</time></trkpt><trkpt lat="45.13492" lon="5.91022"><time>2000-01-01T01:34:22.000Z</time></trkpt><trkpt lat="45.13491" lon="5.91024"><ele>1957</ele><time>2000-01-01T01:34:32.000Z</time></trkpt><trkpt lat="45.1349" lon="5.91029"><time>2000-01-01T01:34:42.000Z</time></trkpt><trkpt lat="45.13488" lon="5.91036"><time>2000-01-01T01:34:52.000Z</time></trkpt><trkpt lat="45.13489" lon="5.9104"><time>2000-01-01T01:35:02.000Z</time></trkpt><trkpt lat="45.1349" lon="5.91042"><time>2000-01-01T01:35:12.000Z</time></trkpt><trkpt lat="45.13489" lon="5.91044"><time>2000-01-01T01:35:22.000Z</time></trkpt><trkpt lat="45.13488" lon="5.91049"><time>2000-01-01T01:35:32.000Z</time></trkpt><trkpt lat="45.13487" lon="5.91051"><ele>1962</ele><time>2000-01-01T01:35:42.000Z</time></trkpt><trkpt lat="45.1349" lon="5.91052"><time>2000-01-01T01:35:52.000Z</time></trkpt><trkpt lat="45.13491" lon="5.91053"><time>2000-01-01T01:36:02.000Z</time></trkpt><trkpt lat="45.13491" lon="5.91056"><time>2000-01-01T01:36:12.000Z</time></trkpt><trkpt lat="45.13494" lon="5.91056"><time>2000-01-01T01:36:22.000Z</time></trkpt><trkpt lat="45.13495" lon="5.91058"><time>2000-01-01T01:36:32.000Z</time></trkpt><trkpt lat="45.13496" lon="5.91059"><time>2000-01-01T01:36:42.000Z</time></trkpt><trkpt lat="45.135" lon="5.91058"><time>2000-01-01T01:36:52.000Z</time></trkpt><trkpt lat="45.13502" lon="5.9106"><time>2000-01-01T01:37:02.000Z</time></trkpt><trkpt lat="45.13504" lon="5.9106"><ele>1968</ele><time>2000-01-01T01:37:12.000Z</time></trkpt><trkpt lat="45.13506" lon="5.9106"><time>2000-01-01T01:37:22.000Z</time></trkpt><trkpt lat="45.13509" lon="5.91057"><time>2000-01-01T01:37:32.000Z</time></trkpt><trkpt lat="45.13511" lon="5.91053"><time>2000-01-01T01:37:42.000Z</time></trkpt><trkpt lat="45.13514" lon="5.91053"><time>2000-01-01T01:37:52.000Z</time></trkpt><trkpt lat="45.13514" lon="5.91059"><time>2000-01-01T01:38:02.000Z</time></trkpt><trkpt lat="45.13515" lon="5.91066"><ele>1968</ele><time>2000-01-01T01:38:12.000Z</time></trkpt><trkpt lat="45.13515" lon="5.91076"><time>2000-01-01T01:38:22.000Z</time></trkpt><trkpt lat="45.13517" lon="5.91082"><time>2000-01-01T01:38:32.000Z</time></trkpt><trkpt lat="45.13517" lon="5.91086"><time>2000-01-01T01:38:42.000Z</time></trkpt><trkpt lat="45.13514" lon="5.91092"><ele>1978</ele><time>2000-01-01T01:38:52.000Z</time></trkpt><trkpt lat="45.13514" lon="5.91096"><time>2000-01-01T01:39:02.000Z</time></trkpt><trkpt lat="45.13511" lon="5.91101"><time>2000-01-01T01:39:12.000Z</time></trkpt><trkpt lat="45.13507" lon="5.91104"><time>2000-01-01T01:39:22.000Z</time></trkpt><trkpt lat="45.13505" lon="5.91105"><time>2000-01-01T01:39:32.000Z</time></trkpt><trkpt lat="45.13504" lon="5.91109"><time>2000-01-01T01:39:42.000Z</time></trkpt><trkpt lat="45.13507" lon="5.91113"><ele>1988</ele><time>2000-01-01T01:39:52.000Z</time></trkpt><trkpt lat="45.13506" lon="5.91117"><time>2000-01-01T01:40:02.000Z</time></trkpt><trkpt lat="45.13505" lon="5.91121"><time>2000-01-01T01:40:12.000Z</time></trkpt><trkpt lat="45.13508" lon="5.91125"><time>2000-01-01T01:40:22.000Z</time></trkpt><trkpt lat="45.13511" lon="5.91128"><time>2000-01-01T01:40:32.000Z</time></trkpt><trkpt lat="45.13513" lon="5.91131"><time>2000-01-01T01:40:42.000Z</time></trkpt><trkpt lat="45.1351" lon="5.91135"><ele>1999</ele><time>2000-01-01T01:40:52.000Z</time></trkpt><trkpt lat="45.1351" lon="5.91139"><time>2000-01-01T01:41:02.000Z</time></trkpt><trkpt lat="45.13511" lon="5.9114"><time>2000-01-01T01:41:12.000Z</time></trkpt><trkpt lat="45.13514" lon="5.91139"><time>2000-01-01T01:41:22.000Z</time></trkpt><trkpt lat="45.13515" lon="5.91145"><time>2000-01-01T01:41:32.000Z</time></trkpt><trkpt lat="45.13517" lon="5.91151"><time>2000-01-01T01:41:42.000Z</time></trkpt><trkpt lat="45.13517" lon="5.91156"><time>2000-01-01T01:41:52.000Z</time></trkpt><trkpt lat="45.13515" lon="5.91158"><ele>1999</ele><time>2000-01-01T01:42:02.000Z</time></trkpt><trkpt lat="45.1351" lon="5.91158"><time>2000-01-01T01:42:12.000Z</time></trkpt><trkpt lat="45.13507" lon="5.91156"><time>2000-01-01T01:42:22.000Z</time></trkpt><trkpt lat="45.13503" lon="5.91154"><time>2000-01-01T01:42:32.000Z</time></trkpt><trkpt lat="45.135" lon="5.91156"><time>2000-01-01T01:42:42.000Z</time></trkpt><trkpt lat="45.13497" lon="5.91155"><time>2000-01-01T01:42:52.000Z</time></trkpt><trkpt lat="45.13494" lon="5.91159"><ele>1999</ele><time>2000-01-01T01:43:02.000Z</time></trkpt><trkpt lat="45.13493" lon="5.9116"><time>2000-01-01T01:43:12.000Z</time></trkpt><trkpt lat="45.1349" lon="5.91156"><time>2000-01-01T01:43:22.000Z</time></trkpt><trkpt lat="45.13489" lon="5.91156"><time>2000-01-01T01:43:32.000Z</time></trkpt><trkpt lat="45.13488" lon="5.91157"><time>2000-01-01T01:43:42.000Z</time></trkpt><trkpt lat="45.13488" lon="5.9116"><time>2000-01-01T01:43:52.000Z</time></trkpt><trkpt lat="45.13487" lon="5.91163"><time>2000-01-01T01:44:02.000Z</time></trkpt><trkpt lat="45.13485" lon="5.91169"><time>2000-01-01T01:44:12.000Z</time></trkpt><trkpt lat="45.13486" lon="5.91172"><ele>2018</ele><time>2000-01-01T01:44:22.000Z</time></trkpt><trkpt lat="45.13487" lon="5.91175"><time>2000-01-01T01:44:32.000Z</time></trkpt><trkpt lat="45.13487" lon="5.91176"><time>2000-01-01T01:44:42.000Z</time></trkpt><trkpt lat="45.13487" lon="5.91181"><time>2000-01-01T01:44:52.000Z</time></trkpt><trkpt lat="45.13488" lon="5.91182"><time>2000-01-01T01:45:02.000Z</time></trkpt><trkpt lat="45.13489" lon="5.91185"><time>2000-01-01T01:45:12.000Z</time></trkpt><trkpt lat="45.13489" lon="5.91186"><time>2000-01-01T01:45:22.000Z</time></trkpt><trkpt lat="45.13489" lon="5.91187"><time>2000-01-01T01:45:32.000Z</time></trkpt><trkpt lat="45.13489" lon="5.91188"><time>2000-01-01T01:45:42.000Z</time></trkpt><trkpt lat="45.13488" lon="5.91189"><time>2000-01-01T01:45:52.000Z</time></trkpt><trkpt lat="45.13484" lon="5.91189"><time>2000-01-01T01:46:02.000Z</time></trkpt><trkpt lat="45.13481" lon="5.91189"><ele>2018</ele><time>2000-01-01T01:46:12.000Z</time></trkpt><trkpt lat="45.13481" lon="5.9119"><time>2000-01-01T01:46:22.000Z</time></trkpt><trkpt lat="45.1348" lon="5.9119"><time>2000-01-01T01:46:32.000Z</time></trkpt><trkpt lat="45.1348" lon="5.9119"><time>2000-01-01T01:46:42.000Z</time></trkpt><trkpt lat="45.1348" lon="5.91192"><time>2000-01-01T01:46:52.000Z</time></trkpt><trkpt lat="45.1348" lon="5.91193"><time>2000-01-01T01:47:02.000Z</time></trkpt><trkpt lat="45.1348" lon="5.91194"><time>2000-01-01T01:47:12.000Z</time></trkpt><trkpt lat="45.13481" lon="5.91196"><time>2000-01-01T01:47:22.000Z</time></trkpt><trkpt lat="45.13482" lon="5.91197"><time>2000-01-01T01:47:32.000Z</time></trkpt><trkpt lat="45.13481" lon="5.91197"><time>2000-01-01T01:47:42.000Z</time></trkpt><trkpt lat="45.1348" lon="5.91197"><time>2000-01-01T01:47:52.000Z</time></trkpt><trkpt lat="45.1348" lon="5.91197"><time>2000-01-01T01:48:02.000Z</time></trkpt><trkpt lat="45.13479" lon="5.91197"><time>2000-01-01T01:48:12.000Z</time></trkpt><trkpt lat="45.1348" lon="5.91199"><time>2000-01-01T01:48:22.000Z</time></trkpt><trkpt lat="45.1348" lon="5.912"><time>2000-01-01T01:48:32.000Z</time></trkpt><trkpt lat="45.1348" lon="5.912"><time>2000-01-01T01:48:42.000Z</time></trkpt><trkpt lat="45.13479" lon="5.912"><time>2000-01-01T01:48:52.000Z</time></trkpt><trkpt lat="45.13479" lon="5.91199"><time>2000-01-01T01:49:02.000Z</time></trkpt><trkpt lat="45.13476" lon="5.91199"><time>2000-01-01T01:49:12.000Z</time></trkpt><trkpt lat="45.13476" lon="5.91199"><time>2000-01-01T01:49:22.000Z</time></trkpt><trkpt lat="45.13475" lon="5.91201"><time>2000-01-01T01:49:32.000Z</time></trkpt><trkpt lat="45.13476" lon="5.91202"><time>2000-01-01T01:49:42.000Z</time></trkpt><trkpt lat="45.13475" lon="5.91203"><ele>2026</ele><time>2000-01-01T01:49:52.000Z</time></trkpt><trkpt lat="45.13475" lon="5.91203"><time>2000-01-01T01:50:02.000Z</time></trkpt><trkpt lat="45.13474" lon="5.91202"><time>2000-01-01T01:50:12.000Z</time></trkpt><trkpt lat="45.1347" lon="5.91202"><time>2000-01-01T01:50:22.000Z</time></trkpt><trkpt lat="45.1347" lon="5.91205"><time>2000-01-01T01:50:32.000Z</time></trkpt><trkpt lat="45.1347" lon="5.91207"><time>2000-01-01T01:50:42.000Z</time></trkpt><trkpt lat="45.13471" lon="5.91207"><time>2000-01-01T01:50:52.000Z</time></trkpt><trkpt lat="45.13472" lon="5.91208"><time>2000-01-01T01:51:02.000Z</time></trkpt><trkpt lat="45.13473" lon="5.91209"><time>2000-01-01T01:51:12.000Z</time></trkpt><trkpt lat="45.13475" lon="5.91209"><time>2000-01-01T01:51:22.000Z</time></trkpt><trkpt lat="45.13477" lon="5.9121"><time>2000-01-01T01:51:32.000Z</time></trkpt><trkpt lat="45.13478" lon="5.91209"><time>2000-01-01T01:51:42.000Z</time></trkpt><trkpt lat="45.1348" lon="5.91209"><time>2000-01-01T01:51:52.000Z</time></trkpt><trkpt lat="45.13482" lon="5.91209"><ele>2026</ele><time>2000-01-01T01:52:02.000Z</time></trkpt><trkpt lat="45.13485" lon="5.9121"><time>2000-01-01T01:52:12.000Z</time></trkpt><trkpt lat="45.13486" lon="5.91211"><time>2000-01-01T01:52:22.000Z</time></trkpt><trkpt lat="45.13487" lon="5.91212"><time>2000-01-01T01:52:32.000Z</time></trkpt><trkpt lat="45.13486" lon="5.91214"><time>2000-01-01T01:52:42.000Z</time></trkpt><trkpt lat="45.13486" lon="5.91215"><time>2000-01-01T01:52:52.000Z</time></trkpt><trkpt lat="45.13486" lon="5.91218"><time>2000-01-01T01:53:02.000Z</time></trkpt><trkpt lat="45.13486" lon="5.9122"><time>2000-01-01T01:53:12.000Z</time></trkpt><trkpt lat="45.13486" lon="5.91221"><time>2000-01-01T01:53:22.000Z</time></trkpt><trkpt lat="45.13486" lon="5.91224"><time>2000-01-01T01:53:32.000Z</time></trkpt><trkpt lat="45.13486" lon="5.91227"><time>2000-01-01T01:53:42.000Z</time></trkpt><trkpt lat="45.13484" lon="5.91233"><ele>2036</ele><time>2000-01-01T01:53:52.000Z</time></trkpt><trkpt lat="45.13481" lon="5.91243"><time>2000-01-01T01:54:02.000Z</time></trkpt><trkpt lat="45.13478" lon="5.9125"><time>2000-01-01T01:54:12.000Z</time></trkpt><trkpt lat="45.13477" lon="5.91252"><time>2000-01-01T01:54:22.000Z</time></trkpt><trkpt lat="45.13476" lon="5.91253"><time>2000-01-01T01:54:32.000Z</time></trkpt><trkpt lat="45.13475" lon="5.91253"><time>2000-01-01T01:54:42.000Z</time></trkpt><trkpt lat="45.13474" lon="5.91254"><time>2000-01-01T01:54:52.000Z</time></trkpt><trkpt lat="45.13472" lon="5.91255"><ele>2044</ele><time>2000-01-01T01:55:02.000Z</time></trkpt><trkpt lat="45.13471" lon="5.91256"><time>2000-01-01T01:55:12.000Z</time></trkpt><trkpt lat="45.1347" lon="5.91262"><time>2000-01-01T01:55:22.000Z</time></trkpt><trkpt lat="45.13469" lon="5.91265"><time>2000-01-01T01:55:32.000Z</time></trkpt><trkpt lat="45.13467" lon="5.91269"><time>2000-01-01T01:55:42.000Z</time></trkpt><trkpt lat="45.1346" lon="5.9128"><ele>2049</ele><time>2000-01-01T01:55:52.000Z</time></trkpt><trkpt lat="45.13458" lon="5.91284"><time>2000-01-01T01:56:02.000Z</time></trkpt><trkpt lat="45.13453" lon="5.9129"><time>2000-01-01T01:56:12.000Z</time></trkpt><trkpt lat="45.13449" lon="5.91294"><time>2000-01-01T01:56:22.000Z</time></trkpt><trkpt lat="45.13446" lon="5.91296"><time>2000-01-01T01:56:32.000Z</time></trkpt><trkpt lat="45.13443" lon="5.91304"><ele>2050</ele><time>2000-01-01T01:56:42.000Z</time></trkpt><trkpt lat="45.13437" lon="5.91314"><time>2000-01-01T01:56:52.000Z</time></trkpt><trkpt lat="45.13434" lon="5.91318"><time>2000-01-01T01:57:02.000Z</time></trkpt><trkpt lat="45.13432" lon="5.9132"><time>2000-01-01T01:57:12.000Z</time></trkpt><trkpt lat="45.13427" lon="5.91331"><ele>2052</ele><time>2000-01-01T01:57:22.000Z</time></trkpt><trkpt lat="45.13425" lon="5.91334"><time>2000-01-01T01:57:32.000Z</time></trkpt><trkpt lat="45.13424" lon="5.91342"><time>2000-01-01T01:57:42.000Z</time></trkpt><trkpt lat="45.13422" lon="5.91345"><time>2000-01-01T01:57:52.000Z</time></trkpt><trkpt lat="45.13419" lon="5.91347"><time>2000-01-01T01:58:02.000Z</time></trkpt><trkpt lat="45.13416" lon="5.91348"><time>2000-01-01T01:58:12.000Z</time></trkpt><trkpt lat="45.13414" lon="5.91349"><ele>2052</ele><time>2000-01-01T01:58:22.000Z</time></trkpt><trkpt lat="45.13414" lon="5.91352"><time>2000-01-01T01:58:32.000Z</time></trkpt><trkpt lat="45.13413" lon="5.91355"><time>2000-01-01T01:58:42.000Z</time></trkpt><trkpt lat="45.13412" lon="5.91356"><time>2000-01-01T01:58:52.000Z</time></trkpt><trkpt lat="45.13409" lon="5.91359"><time>2000-01-01T01:59:02.000Z</time></trkpt><trkpt lat="45.13406" lon="5.91363"><time>2000-01-01T01:59:12.000Z</time></trkpt><trkpt lat="45.13406" lon="5.91367"><time>2000-01-01T01:59:22.000Z</time></trkpt><trkpt lat="45.13405" lon="5.91369"><time>2000-01-01T01:59:32.000Z</time></trkpt><trkpt lat="45.13402" lon="5.91375"><ele>2036</ele><time>2000-01-01T01:59:42.000Z</time></trkpt><trkpt lat="45.13402" lon="5.91378"><time>2000-01-01T01:59:52.000Z</time></trkpt><trkpt lat="45.13402" lon="5.9138"><time>2000-01-01T02:00:02.000Z</time></trkpt><trkpt lat="45.13401" lon="5.91383"><time>2000-01-01T02:00:12.000Z</time></trkpt><trkpt lat="45.13401" lon="5.91386"><time>2000-01-01T02:00:22.000Z</time></trkpt><trkpt lat="45.13401" lon="5.91391"><time>2000-01-01T02:00:32.000Z</time></trkpt><trkpt lat="45.13401" lon="5.91394"><time>2000-01-01T02:00:42.000Z</time></trkpt><trkpt lat="45.13402" lon="5.91396"><time>2000-01-01T02:00:52.000Z</time></trkpt><trkpt lat="45.13403" lon="5.91398"><time>2000-01-01T02:01:02.000Z</time></trkpt><trkpt lat="45.13403" lon="5.914"><time>2000-01-01T02:01:12.000Z</time></trkpt><trkpt lat="45.13403" lon="5.91403"><ele>2034</ele><time>2000-01-01T02:01:22.000Z</time></trkpt><trkpt lat="45.13402" lon="5.91407"><time>2000-01-01T02:01:32.000Z</time></trkpt><trkpt lat="45.13401" lon="5.91414"><time>2000-01-01T02:01:42.000Z</time></trkpt><trkpt lat="45.134" lon="5.91419"><time>2000-01-01T02:01:52.000Z</time></trkpt><trkpt lat="45.134" lon="5.91424"><time>2000-01-01T02:02:02.000Z</time></trkpt><trkpt lat="45.13398" lon="5.9143"><ele>2033</ele><time>2000-01-01T02:02:12.000Z</time></trkpt><trkpt lat="45.13397" lon="5.91435"><time>2000-01-01T02:02:22.000Z</time></trkpt><trkpt lat="45.13396" lon="5.91437"><time>2000-01-01T02:02:32.000Z</time></trkpt><trkpt lat="45.13395" lon="5.9144"><time>2000-01-01T02:02:42.000Z</time></trkpt><trkpt lat="45.13394" lon="5.91443"><time>2000-01-01T02:02:52.000Z</time></trkpt><trkpt lat="45.13394" lon="5.91444"><time>2000-01-01T02:03:02.000Z</time></trkpt><trkpt lat="45.13392" lon="5.91446"><time>2000-01-01T02:03:12.000Z</time></trkpt><trkpt lat="45.13392" lon="5.91448"><time>2000-01-01T02:03:22.000Z</time></trkpt><trkpt lat="45.13391" lon="5.91453"><time>2000-01-01T02:03:32.000Z</time></trkpt><trkpt lat="45.1339" lon="5.91456"><ele>2033</ele><time>2000-01-01T02:03:42.000Z</time></trkpt><trkpt lat="45.13389" lon="5.91458"><time>2000-01-01T02:03:52.000Z</time></trkpt><trkpt lat="45.13387" lon="5.91466"><time>2000-01-01T02:04:02.000Z</time></trkpt><trkpt lat="45.13387" lon="5.91469"><time>2000-01-01T02:04:12.000Z</time></trkpt><trkpt lat="45.13386" lon="5.91472"><time>2000-01-01T02:04:22.000Z</time></trkpt><trkpt lat="45.13386" lon="5.91474"><time>2000-01-01T02:04:32.000Z</time></trkpt><trkpt lat="45.13385" lon="5.91479"><time>2000-01-01T02:04:42.000Z</time></trkpt><trkpt lat="45.13385" lon="5.91482"><time>2000-01-01T02:04:52.000Z</time></trkpt><trkpt lat="45.13384" lon="5.91486"><ele>2035</ele><time>2000-01-01T02:05:02.000Z</time></trkpt><trkpt lat="45.13384" lon="5.91489"><time>2000-01-01T02:05:12.000Z</time></trkpt><trkpt lat="45.13383" lon="5.91492"><time>2000-01-01T02:05:22.000Z</time></trkpt><trkpt lat="45.13384" lon="5.91495"><time>2000-01-01T02:05:32.000Z</time></trkpt><trkpt lat="45.13384" lon="5.91497"><time>2000-01-01T02:05:42.000Z</time></trkpt><trkpt lat="45.13384" lon="5.91499"><time>2000-01-01T02:05:52.000Z</time></trkpt><trkpt lat="45.13384" lon="5.91506"><time>2000-01-01T02:06:02.000Z</time></trkpt><trkpt lat="45.13384" lon="5.91507"><time>2000-01-01T02:06:12.000Z</time></trkpt><trkpt lat="45.13383" lon="5.91511"><time>2000-01-01T02:06:22.000Z</time></trkpt><trkpt lat="45.13381" lon="5.91516"><ele>2024</ele><time>2000-01-01T02:06:32.000Z</time></trkpt><trkpt lat="45.13381" lon="5.9152"><time>2000-01-01T02:06:42.000Z</time></trkpt><trkpt lat="45.13379" lon="5.91522"><time>2000-01-01T02:06:52.000Z</time></trkpt><trkpt lat="45.13378" lon="5.91524"><time>2000-01-01T02:07:02.000Z</time></trkpt><trkpt lat="45.13376" lon="5.91527"><time>2000-01-01T02:07:12.000Z</time></trkpt><trkpt lat="45.13376" lon="5.9153"><time>2000-01-01T02:07:22.000Z</time></trkpt><trkpt lat="45.13376" lon="5.91531"><time>2000-01-01T02:07:32.000Z</time></trkpt><trkpt lat="45.13374" lon="5.91535"><time>2000-01-01T02:07:42.000Z</time></trkpt><trkpt lat="45.13373" lon="5.91538"><time>2000-01-01T02:07:52.000Z</time></trkpt><trkpt lat="45.13373" lon="5.91541"><ele>2022</ele><time>2000-01-01T02:08:02.000Z</time></trkpt><trkpt lat="45.13373" lon="5.91543"><time>2000-01-01T02:08:12.000Z</time></trkpt><trkpt lat="45.13372" lon="5.91544"><time>2000-01-01T02:08:22.000Z</time></trkpt><trkpt lat="45.13371" lon="5.91545"><time>2000-01-01T02:08:32.000Z</time></trkpt><trkpt lat="45.13371" lon="5.91547"><time>2000-01-01T02:08:42.000Z</time></trkpt><trkpt lat="45.1337" lon="5.91548"><time>2000-01-01T02:08:52.000Z</time></trkpt><trkpt lat="45.13369" lon="5.9155"><time>2000-01-01T02:09:02.000Z</time></trkpt><trkpt lat="45.13367" lon="5.91553"><time>2000-01-01T02:09:12.000Z</time></trkpt><trkpt lat="45.13365" lon="5.91555"><time>2000-01-01T02:09:22.000Z</time></trkpt><trkpt lat="45.13364" lon="5.91557"><time>2000-01-01T02:09:32.000Z</time></trkpt><trkpt lat="45.13364" lon="5.91559"><time>2000-01-01T02:09:42.000Z</time></trkpt><trkpt lat="45.13363" lon="5.9156"><time>2000-01-01T02:09:52.000Z</time></trkpt><trkpt lat="45.13362" lon="5.91562"><time>2000-01-01T02:10:02.000Z</time></trkpt><trkpt lat="45.13362" lon="5.91565"><ele>2026</ele><time>2000-01-01T02:10:12.000Z</time></trkpt><trkpt lat="45.13361" lon="5.91568"><time>2000-01-01T02:10:22.000Z</time></trkpt><trkpt lat="45.13362" lon="5.91571"><time>2000-01-01T02:10:32.000Z</time></trkpt><trkpt lat="45.13362" lon="5.91574"><time>2000-01-01T02:10:42.000Z</time></trkpt><trkpt lat="45.13362" lon="5.91576"><time>2000-01-01T02:10:52.000Z</time></trkpt><trkpt lat="45.13361" lon="5.91578"><time>2000-01-01T02:11:02.000Z</time></trkpt><trkpt lat="45.1336" lon="5.91579"><time>2000-01-01T02:11:12.000Z</time></trkpt><trkpt lat="45.13358" lon="5.91583"><time>2000-01-01T02:11:22.000Z</time></trkpt><trkpt lat="45.13358" lon="5.91585"><time>2000-01-01T02:11:32.000Z</time></trkpt><trkpt lat="45.13357" lon="5.91587"><time>2000-01-01T02:11:42.000Z</time></trkpt><trkpt lat="45.13356" lon="5.91589"><ele>2024</ele><time>2000-01-01T02:11:52.000Z</time></trkpt><trkpt lat="45.13354" lon="5.91592"><time>2000-01-01T02:12:02.000Z</time></trkpt><trkpt lat="45.13353" lon="5.91593"><time>2000-01-01T02:12:12.000Z</time></trkpt><trkpt lat="45.13353" lon="5.91597"><time>2000-01-01T02:12:22.000Z</time></trkpt><trkpt lat="45.13352" lon="5.916"><time>2000-01-01T02:12:32.000Z</time></trkpt><trkpt lat="45.13351" lon="5.91604"><time>2000-01-01T02:12:42.000Z</time></trkpt><trkpt lat="45.1335" lon="5.91607"><time>2000-01-01T02:12:52.000Z</time></trkpt><trkpt lat="45.13349" lon="5.91609"><time>2000-01-01T02:13:02.000Z</time></trkpt><trkpt lat="45.13349" lon="5.9161"><time>2000-01-01T02:13:12.000Z</time></trkpt><trkpt lat="45.13348" lon="5.91612"><time>2000-01-01T02:13:22.000Z</time></trkpt><trkpt lat="45.13347" lon="5.91614"><ele>2023</ele><time>2000-01-01T02:13:32.000Z</time></trkpt><trkpt lat="45.13347" lon="5.91615"><time>2000-01-01T02:13:42.000Z</time></trkpt><trkpt lat="45.13347" lon="5.91618"><time>2000-01-01T02:13:52.000Z</time></trkpt><trkpt lat="45.13347" lon="5.9162"><time>2000-01-01T02:14:02.000Z</time></trkpt><trkpt lat="45.13345" lon="5.91629"><time>2000-01-01T02:14:12.000Z</time></trkpt><trkpt lat="45.13344" lon="5.91632"><time>2000-01-01T02:14:22.000Z</time></trkpt><trkpt lat="45.13342" lon="5.91635"><time>2000-01-01T02:14:32.000Z</time></trkpt><trkpt lat="45.13341" lon="5.91635"><time>2000-01-01T02:14:42.000Z</time></trkpt><trkpt lat="45.13337" lon="5.91634"><ele>2023</ele><time>2000-01-01T02:14:52.000Z</time></trkpt><trkpt lat="45.13328" lon="5.91633"><time>2000-01-01T02:15:02.000Z</time></trkpt><trkpt lat="45.13326" lon="5.91633"><time>2000-01-01T02:15:12.000Z</time></trkpt><trkpt lat="45.1332" lon="5.91635"><time>2000-01-01T02:15:22.000Z</time></trkpt><trkpt lat="45.13317" lon="5.91636"><ele>2022</ele><time>2000-01-01T02:15:32.000Z</time></trkpt><trkpt lat="45.13315" lon="5.91639"><time>2000-01-01T02:15:42.000Z</time></trkpt><trkpt lat="45.13314" lon="5.91643"><time>2000-01-01T02:15:52.000Z</time></trkpt><trkpt lat="45.13313" lon="5.9165"><time>2000-01-01T02:16:02.000Z</time></trkpt><trkpt lat="45.13312" lon="5.91654"><time>2000-01-01T02:16:12.000Z</time></trkpt><trkpt lat="45.13312" lon="5.91655"><time>2000-01-01T02:16:22.000Z</time></trkpt><trkpt lat="45.13308" lon="5.9166"><ele>2021</ele><time>2000-01-01T02:16:32.000Z</time></trkpt><trkpt lat="45.13308" lon="5.91661"><time>2000-01-01T02:16:42.000Z</time></trkpt><trkpt lat="45.13302" lon="5.91663"><time>2000-01-01T02:16:52.000Z</time></trkpt><trkpt lat="45.13291" lon="5.91667"><time>2000-01-01T02:17:02.000Z</time></trkpt><trkpt lat="45.13287" lon="5.91669"><ele>2019</ele><time>2000-01-01T02:17:12.000Z</time></trkpt><trkpt lat="45.13282" lon="5.91672"><time>2000-01-01T02:17:22.000Z</time></trkpt><trkpt lat="45.13278" lon="5.91676"><time>2000-01-01T02:17:32.000Z</time></trkpt><trkpt lat="45.13276" lon="5.91681"><time>2000-01-01T02:17:42.000Z</time></trkpt><trkpt lat="45.13274" lon="5.91685"><time>2000-01-01T02:17:52.000Z</time></trkpt><trkpt lat="45.13272" lon="5.91689"><ele>2019</ele><time>2000-01-01T02:18:02.000Z</time></trkpt><trkpt lat="45.13271" lon="5.91696"><time>2000-01-01T02:18:12.000Z</time></trkpt><trkpt lat="45.13271" lon="5.917"><time>2000-01-01T02:18:22.000Z</time></trkpt><trkpt lat="45.13271" lon="5.91709"><time>2000-01-01T02:18:32.000Z</time></trkpt><trkpt lat="45.13271" lon="5.91712"><time>2000-01-01T02:18:42.000Z</time></trkpt><trkpt lat="45.13272" lon="5.91715"><ele>2018</ele><time>2000-01-01T02:18:52.000Z</time></trkpt><trkpt lat="45.13268" lon="5.91718"><time>2000-01-01T02:19:02.000Z</time></trkpt><trkpt lat="45.13263" lon="5.91722"><time>2000-01-01T02:19:12.000Z</time></trkpt><trkpt lat="45.1326" lon="5.91723"><time>2000-01-01T02:19:22.000Z</time></trkpt><trkpt lat="45.1326" lon="5.91725"><time>2000-01-01T02:19:32.000Z</time></trkpt><trkpt lat="45.1326" lon="5.91726"><time>2000-01-01T02:19:42.000Z</time></trkpt><trkpt lat="45.13252" lon="5.91726"><ele>2014</ele><time>2000-01-01T02:19:52.000Z</time></trkpt><trkpt lat="45.1325" lon="5.91725"><time>2000-01-01T02:20:02.000Z</time></trkpt><trkpt lat="45.13249" lon="5.91724"><time>2000-01-01T02:20:12.000Z</time></trkpt><trkpt lat="45.1324" lon="5.91724"><time>2000-01-01T02:20:22.000Z</time></trkpt><trkpt lat="45.13237" lon="5.91724"><time>2000-01-01T02:20:32.000Z</time></trkpt><trkpt lat="45.13233" lon="5.91724"><time>2000-01-01T02:20:42.000Z</time></trkpt><trkpt lat="45.13232" lon="5.91725"><ele>2009</ele><time>2000-01-01T02:20:52.000Z</time></trkpt><trkpt lat="45.13232" lon="5.91725"><time>2000-01-01T02:21:02.000Z</time></trkpt><trkpt lat="45.1323" lon="5.91728"><time>2000-01-01T02:21:12.000Z</time></trkpt><trkpt lat="45.13229" lon="5.91729"><time>2000-01-01T02:21:22.000Z</time></trkpt><trkpt lat="45.13226" lon="5.9173"><time>2000-01-01T02:21:32.000Z</time></trkpt><trkpt lat="45.13221" lon="5.9173"><time>2000-01-01T02:21:42.000Z</time></trkpt><trkpt lat="45.1322" lon="5.9173"><time>2000-01-01T02:21:52.000Z</time></trkpt><trkpt lat="45.13218" lon="5.91729"><time>2000-01-01T02:22:02.000Z</time></trkpt><trkpt lat="45.13215" lon="5.91726"><time>2000-01-01T02:22:12.000Z</time></trkpt><trkpt lat="45.13209" lon="5.91721"><ele>2006</ele><time>2000-01-01T02:22:22.000Z</time></trkpt><trkpt lat="45.13204" lon="5.91715"><time>2000-01-01T02:22:32.000Z</time></trkpt><trkpt lat="45.13202" lon="5.91715"><time>2000-01-01T02:22:42.000Z</time></trkpt><trkpt lat="45.13201" lon="5.91715"><time>2000-01-01T02:22:52.000Z</time></trkpt><trkpt lat="45.132" lon="5.91716"><time>2000-01-01T02:23:02.000Z</time></trkpt><trkpt lat="45.13199" lon="5.91716"><time>2000-01-01T02:23:12.000Z</time></trkpt><trkpt lat="45.13198" lon="5.91718"><time>2000-01-01T02:23:22.000Z</time></trkpt><trkpt lat="45.13195" lon="5.91728"><ele>2006</ele><time>2000-01-01T02:23:32.000Z</time></trkpt><trkpt lat="45.1319" lon="5.91734"><time>2000-01-01T02:23:42.000Z</time></trkpt><trkpt lat="45.13188" lon="5.91737"><time>2000-01-01T02:23:52.000Z</time></trkpt><trkpt lat="45.13184" lon="5.91737"><time>2000-01-01T02:24:02.000Z</time></trkpt><trkpt lat="45.13183" lon="5.91737"><time>2000-01-01T02:24:12.000Z</time></trkpt><trkpt lat="45.1318" lon="5.91733"><time>2000-01-01T02:24:22.000Z</time></trkpt><trkpt lat="45.13179" lon="5.91732"><ele>2009</ele><time>2000-01-01T02:24:32.000Z</time></trkpt><trkpt lat="45.13176" lon="5.91733"><time>2000-01-01T02:24:42.000Z</time></trkpt><trkpt lat="45.13174" lon="5.91732"><time>2000-01-01T02:24:52.000Z</time></trkpt><trkpt lat="45.13172" lon="5.9173"><time>2000-01-01T02:25:02.000Z</time></trkpt><trkpt lat="45.13172" lon="5.91729"><time>2000-01-01T02:25:12.000Z</time></trkpt><trkpt lat="45.13169" lon="5.91726"><time>2000-01-01T02:25:22.000Z</time></trkpt><trkpt lat="45.13165" lon="5.91723"><time>2000-01-01T02:25:32.000Z</time></trkpt><trkpt lat="45.13158" lon="5.9172"><ele>2009</ele><time>2000-01-01T02:25:42.000Z</time></trkpt><trkpt lat="45.13157" lon="5.91719"><time>2000-01-01T02:25:52.000Z</time></trkpt><trkpt lat="45.13154" lon="5.91715"><time>2000-01-01T02:26:02.000Z</time></trkpt><trkpt lat="45.13153" lon="5.91714"><time>2000-01-01T02:26:12.000Z</time></trkpt><trkpt lat="45.13151" lon="5.91715"><time>2000-01-01T02:26:22.000Z</time></trkpt><trkpt lat="45.13147" lon="5.91716"><time>2000-01-01T02:26:32.000Z</time></trkpt><trkpt lat="45.13139" lon="5.91716"><ele>2009</ele><time>2000-01-01T02:26:42.000Z</time></trkpt><trkpt lat="45.13134" lon="5.91716"><time>2000-01-01T02:26:52.000Z</time></trkpt><trkpt lat="45.13133" lon="5.91718"><time>2000-01-01T02:27:02.000Z</time></trkpt><trkpt lat="45.13129" lon="5.91723"><time>2000-01-01T02:27:12.000Z</time></trkpt><trkpt lat="45.13128" lon="5.91724"><time>2000-01-01T02:27:22.000Z</time></trkpt><trkpt lat="45.13126" lon="5.91726"><time>2000-01-01T02:27:32.000Z</time></trkpt><trkpt lat="45.13122" lon="5.91729"><ele>2009</ele><time>2000-01-01T02:27:42.000Z</time></trkpt><trkpt lat="45.1312" lon="5.91731"><time>2000-01-01T02:27:52.000Z</time></trkpt><trkpt lat="45.13115" lon="5.91733"><time>2000-01-01T02:28:02.000Z</time></trkpt><trkpt lat="45.13113" lon="5.91733"><time>2000-01-01T02:28:12.000Z</time></trkpt><trkpt lat="45.131" lon="5.91725"><ele>2010</ele><time>2000-01-01T02:28:22.000Z</time></trkpt><trkpt lat="45.1309" lon="5.91717"><time>2000-01-01T02:28:32.000Z</time></trkpt><trkpt lat="45.13087" lon="5.91714"><time>2000-01-01T02:28:42.000Z</time></trkpt><trkpt lat="45.13084" lon="5.91707"><ele>2010</ele><time>2000-01-01T02:28:52.000Z</time></trkpt><trkpt lat="45.13081" lon="5.91704"><time>2000-01-01T02:29:02.000Z</time></trkpt><trkpt lat="45.13076" lon="5.91701"><time>2000-01-01T02:29:12.000Z</time></trkpt><trkpt lat="45.13071" lon="5.91692"><time>2000-01-01T02:29:22.000Z</time></trkpt><trkpt lat="45.1307" lon="5.9169"><time>2000-01-01T02:29:32.000Z</time></trkpt><trkpt lat="45.13065" lon="5.91685"><ele>2010</ele><time>2000-01-01T02:29:42.000Z</time></trkpt><trkpt lat="45.13061" lon="5.91671"><time>2000-01-01T02:29:52.000Z</time></trkpt><trkpt lat="45.13054" lon="5.91665"><time>2000-01-01T02:30:02.000Z</time></trkpt><trkpt lat="45.1305" lon="5.91664"><ele>2010</ele><time>2000-01-01T02:30:12.000Z</time></trkpt><trkpt lat="45.13047" lon="5.91664"><time>2000-01-01T02:30:22.000Z</time></trkpt><trkpt lat="45.13046" lon="5.91663"><time>2000-01-01T02:30:32.000Z</time></trkpt><trkpt lat="45.13035" lon="5.91664"><time>2000-01-01T02:30:42.000Z</time></trkpt><trkpt lat="45.1303" lon="5.91663"><ele>2014</ele><time>2000-01-01T02:30:52.000Z</time></trkpt><trkpt lat="45.13027" lon="5.91667"><time>2000-01-01T02:31:02.000Z</time></trkpt><trkpt lat="45.1302" lon="5.91675"><time>2000-01-01T02:31:12.000Z</time></trkpt><trkpt lat="45.13014" lon="5.91683"><ele>2021</ele><time>2000-01-01T02:31:22.000Z</time></trkpt><trkpt lat="45.13007" lon="5.91693"><time>2000-01-01T02:31:32.000Z</time></trkpt><trkpt lat="45.13" lon="5.91703"><ele>2021</ele><time>2000-01-01T02:31:42.000Z</time></trkpt><trkpt lat="45.12991" lon="5.91714"><time>2000-01-01T02:31:52.000Z</time></trkpt><trkpt lat="45.12966" lon="5.91747"><ele>2026</ele><time>2000-01-01T02:32:02.000Z</time></trkpt><trkpt lat="45.12959" lon="5.91757"><time>2000-01-01T02:32:12.000Z</time></trkpt><trkpt lat="45.12944" lon="5.91783"><ele>2055</ele><time>2000-01-01T02:32:22.000Z</time></trkpt><trkpt lat="45.12929" lon="5.9181"><ele>2068</ele><time>2000-01-01T02:32:32.000Z</time></trkpt><trkpt lat="45.12929" lon="5.91812"><time>2000-01-01T02:32:42.000Z</time></trkpt><trkpt lat="45.12928" lon="5.91822"><time>2000-01-01T02:32:52.000Z</time></trkpt><trkpt lat="45.12927" lon="5.91835"><time>2000-01-01T02:33:02.000Z</time></trkpt><trkpt lat="45.12926" lon="5.91839"><ele>2081</ele><time>2000-01-01T02:33:12.000Z</time></trkpt><trkpt lat="45.12926" lon="5.91849"><time>2000-01-01T02:33:22.000Z</time></trkpt><trkpt lat="45.12923" lon="5.91862"><time>2000-01-01T02:33:32.000Z</time></trkpt><trkpt lat="45.12921" lon="5.91869"><ele>2083</ele><time>2000-01-01T02:33:42.000Z</time></trkpt><trkpt lat="45.12919" lon="5.91884"><time>2000-01-01T02:33:52.000Z</time></trkpt><trkpt lat="45.12918" lon="5.9189"><time>2000-01-01T02:34:02.000Z</time></trkpt><trkpt lat="45.12917" lon="5.91892"><time>2000-01-01T02:34:12.000Z</time></trkpt><trkpt lat="45.12912" lon="5.91904"><ele>2085</ele><time>2000-01-01T02:34:22.000Z</time></trkpt><trkpt lat="45.12911" lon="5.91909"><time>2000-01-01T02:34:32.000Z</time></trkpt><trkpt lat="45.12909" lon="5.91921"><time>2000-01-01T02:34:42.000Z</time></trkpt><trkpt lat="45.12907" lon="5.91929"><time>2000-01-01T02:34:52.000Z</time></trkpt><trkpt lat="45.12902" lon="5.91937"><ele>2097</ele><time>2000-01-01T02:35:02.000Z</time></trkpt><trkpt lat="45.12901" lon="5.91941"><time>2000-01-01T02:35:12.000Z</time></trkpt><trkpt lat="45.12899" lon="5.91944"><time>2000-01-01T02:35:22.000Z</time></trkpt><trkpt lat="45.12899" lon="5.91945"><time>2000-01-01T02:35:32.000Z</time></trkpt><trkpt lat="45.12899" lon="5.91944"><time>2000-01-01T02:35:42.000Z</time></trkpt><trkpt lat="45.12895" lon="5.91941"><time>2000-01-01T02:35:52.000Z</time></trkpt><trkpt lat="45.12891" lon="5.91936"><time>2000-01-01T02:36:02.000Z</time></trkpt><trkpt lat="45.1289" lon="5.91935"><time>2000-01-01T02:36:12.000Z</time></trkpt><trkpt lat="45.12889" lon="5.91928"><ele>2097</ele><time>2000-01-01T02:36:22.000Z</time></trkpt><trkpt lat="45.12889" lon="5.91928"><time>2000-01-01T02:36:32.000Z</time></trkpt><trkpt lat="45.12881" lon="5.91939"><time>2000-01-01T02:36:42.000Z</time></trkpt><trkpt lat="45.12881" lon="5.91942"><time>2000-01-01T02:36:52.000Z</time></trkpt><trkpt lat="45.12882" lon="5.91951"><ele>2099</ele><time>2000-01-01T02:37:02.000Z</time></trkpt><trkpt lat="45.12884" lon="5.91959"><time>2000-01-01T02:37:12.000Z</time></trkpt><trkpt lat="45.12881" lon="5.91961"><time>2000-01-01T02:37:22.000Z</time></trkpt><trkpt lat="45.12875" lon="5.91963"><time>2000-01-01T02:37:32.000Z</time></trkpt><trkpt lat="45.12858" lon="5.91972"><ele>2109</ele><time>2000-01-01T02:37:42.000Z</time></trkpt><trkpt lat="45.12853" lon="5.91962"><time>2000-01-01T02:37:52.000Z</time></trkpt><trkpt lat="45.12849" lon="5.91954"><time>2000-01-01T02:38:02.000Z</time></trkpt><trkpt lat="45.12843" lon="5.91945"><ele>2120</ele><time>2000-01-01T02:38:12.000Z</time></trkpt><trkpt lat="45.12839" lon="5.9194"><time>2000-01-01T02:38:22.000Z</time></trkpt><trkpt lat="45.12836" lon="5.91933"><time>2000-01-01T02:38:32.000Z</time></trkpt><trkpt lat="45.12832" lon="5.91925"><time>2000-01-01T02:38:42.000Z</time></trkpt><trkpt lat="45.12822" lon="5.91896"><ele>2125</ele><time>2000-01-01T02:38:52.000Z</time></trkpt><trkpt lat="45.12813" lon="5.91885"><time>2000-01-01T02:39:02.000Z</time></trkpt><trkpt lat="45.12807" lon="5.91879"><time>2000-01-01T02:39:12.000Z</time></trkpt><trkpt lat="45.12803" lon="5.91871"><ele>2128</ele><time>2000-01-01T02:39:22.000Z</time></trkpt><trkpt lat="45.12797" lon="5.91859"><time>2000-01-01T02:39:32.000Z</time></trkpt><trkpt lat="45.12795" lon="5.91856"><time>2000-01-01T02:39:42.000Z</time></trkpt><trkpt lat="45.12791" lon="5.91852"><time>2000-01-01T02:39:52.000Z</time></trkpt><trkpt lat="45.12789" lon="5.91849"><ele>2131</ele><time>2000-01-01T02:40:02.000Z</time></trkpt><trkpt lat="45.12786" lon="5.91844"><time>2000-01-01T02:40:12.000Z</time></trkpt><trkpt lat="45.1279" lon="5.91838"><time>2000-01-01T02:40:22.000Z</time></trkpt><trkpt lat="45.12777" lon="5.91816"><ele>2132</ele><time>2000-01-01T02:40:32.000Z</time></trkpt><trkpt lat="45.1277" lon="5.9181"><time>2000-01-01T02:40:42.000Z</time></trkpt><trkpt lat="45.12767" lon="5.91797"><time>2000-01-01T02:40:52.000Z</time></trkpt><trkpt lat="45.12757" lon="5.91779"><ele>2134</ele><time>2000-01-01T02:41:02.000Z</time></trkpt><trkpt lat="45.12748" lon="5.9176"><time>2000-01-01T02:41:12.000Z</time></trkpt><trkpt lat="45.12747" lon="5.91759"><time>2000-01-01T02:41:22.000Z</time></trkpt><trkpt lat="45.12744" lon="5.91757"><ele>2133</ele><time>2000-01-01T02:41:32.000Z</time></trkpt><trkpt lat="45.12738" lon="5.91752"><time>2000-01-01T02:41:42.000Z</time></trkpt><trkpt lat="45.1273" lon="5.91735"><ele>2133</ele><time>2000-01-01T02:41:52.000Z</time></trkpt><trkpt lat="45.12728" lon="5.91732"><time>2000-01-01T02:42:02.000Z</time></trkpt><trkpt lat="45.12728" lon="5.91721"><time>2000-01-01T02:42:12.000Z</time></trkpt><trkpt lat="45.12727" lon="5.9172"><time>2000-01-01T02:42:22.000Z</time></trkpt><trkpt lat="45.1272" lon="5.91696"><ele>2134</ele><time>2000-01-01T02:42:32.000Z</time></trkpt><trkpt lat="45.12719" lon="5.91694"><time>2000-01-01T02:42:42.000Z</time></trkpt><trkpt lat="45.12718" lon="5.91682"><time>2000-01-01T02:42:52.000Z</time></trkpt><trkpt lat="45.12716" lon="5.91671"><time>2000-01-01T02:43:02.000Z</time></trkpt><trkpt lat="45.12705" lon="5.91645"><ele>2136</ele><time>2000-01-01T02:43:12.000Z</time></trkpt><trkpt lat="45.12695" lon="5.91613"><ele>2131</ele><time>2000-01-01T02:43:22.000Z</time></trkpt><trkpt lat="45.12682" lon="5.91573"><ele>2135</ele><time>2000-01-01T02:43:32.000Z</time></trkpt><trkpt lat="45.12682" lon="5.9157"><time>2000-01-01T02:43:42.000Z</time></trkpt><trkpt lat="45.12681" lon="5.91561"><time>2000-01-01T02:43:52.000Z</time></trkpt><trkpt lat="45.12679" lon="5.91543"><ele>2140</ele><time>2000-01-01T02:44:02.000Z</time></trkpt><trkpt lat="45.12673" lon="5.91528"><time>2000-01-01T02:44:12.000Z</time></trkpt><trkpt lat="45.12672" lon="5.91518"><ele>2143</ele><time>2000-01-01T02:44:22.000Z</time></trkpt><trkpt lat="45.12671" lon="5.91511"><time>2000-01-01T02:44:32.000Z</time></trkpt><trkpt lat="45.12668" lon="5.91489"><ele>2139</ele><time>2000-01-01T02:44:42.000Z</time></trkpt><trkpt lat="45.12666" lon="5.91484"><time>2000-01-01T02:44:52.000Z</time></trkpt><trkpt lat="45.12657" lon="5.91464"><ele>2145</ele><time>2000-01-01T02:45:02.000Z</time></trkpt><trkpt lat="45.12653" lon="5.91455"><time>2000-01-01T02:45:12.000Z</time></trkpt><trkpt lat="45.1265" lon="5.91446"><time>2000-01-01T02:45:22.000Z</time></trkpt><trkpt lat="45.12648" lon="5.91436"><ele>2152</ele><time>2000-01-01T02:45:32.000Z</time></trkpt><trkpt lat="45.12643" lon="5.91427"><time>2000-01-01T02:45:42.000Z</time></trkpt><trkpt lat="45.12638" lon="5.91418"><time>2000-01-01T02:45:52.000Z</time></trkpt><trkpt lat="45.12636" lon="5.91412"><ele>2152</ele><time>2000-01-01T02:46:02.000Z</time></trkpt><trkpt lat="45.12633" lon="5.91405"><time>2000-01-01T02:46:12.000Z</time></trkpt><trkpt lat="45.12627" lon="5.91399"><time>2000-01-01T02:46:22.000Z</time></trkpt><trkpt lat="45.1262" lon="5.91395"><ele>2155</ele><time>2000-01-01T02:46:32.000Z</time></trkpt><trkpt lat="45.12615" lon="5.9139"><time>2000-01-01T02:46:42.000Z</time></trkpt><trkpt lat="45.12611" lon="5.91386"><time>2000-01-01T02:46:52.000Z</time></trkpt><trkpt lat="45.1261" lon="5.91383"><time>2000-01-01T02:47:02.000Z</time></trkpt><trkpt lat="45.12606" lon="5.91372"><ele>2155</ele><time>2000-01-01T02:47:12.000Z</time></trkpt><trkpt lat="45.12604" lon="5.91366"><time>2000-01-01T02:47:22.000Z</time></trkpt><trkpt lat="45.12601" lon="5.91355"><time>2000-01-01T02:47:32.000Z</time></trkpt><trkpt lat="45.126" lon="5.91352"><time>2000-01-01T02:47:42.000Z</time></trkpt><trkpt lat="45.12598" lon="5.91344"><ele>2155</ele><time>2000-01-01T02:47:52.000Z</time></trkpt><trkpt lat="45.12594" lon="5.91332"><time>2000-01-01T02:48:02.000Z</time></trkpt><trkpt lat="45.12592" lon="5.91326"><time>2000-01-01T02:48:12.000Z</time></trkpt><trkpt lat="45.12588" lon="5.91318"><ele>2168</ele><time>2000-01-01T02:48:22.000Z</time></trkpt><trkpt lat="45.12583" lon="5.91308"><time>2000-01-01T02:48:32.000Z</time></trkpt><trkpt lat="45.12573" lon="5.9129"><ele>2171</ele><time>2000-01-01T02:48:42.000Z</time></trkpt><trkpt lat="45.12568" lon="5.91282"><time>2000-01-01T02:48:52.000Z</time></trkpt><trkpt lat="45.12563" lon="5.91274"><time>2000-01-01T02:49:02.000Z</time></trkpt><trkpt lat="45.12555" lon="5.9126"><ele>2172</ele><time>2000-01-01T02:49:12.000Z</time></trkpt><trkpt lat="45.12551" lon="5.91255"><time>2000-01-01T02:49:22.000Z</time></trkpt><trkpt lat="45.12542" lon="5.91244"><time>2000-01-01T02:49:32.000Z</time></trkpt><trkpt lat="45.12532" lon="5.91232"><ele>2171</ele><time>2000-01-01T02:49:42.000Z</time></trkpt><trkpt lat="45.12526" lon="5.91225"><time>2000-01-01T02:49:52.000Z</time></trkpt><trkpt lat="45.12518" lon="5.91215"><time>2000-01-01T02:50:02.000Z</time></trkpt><trkpt lat="45.12506" lon="5.91202"><ele>2171</ele><time>2000-01-01T02:50:12.000Z</time></trkpt><trkpt lat="45.12504" lon="5.91199"><time>2000-01-01T02:50:22.000Z</time></trkpt><trkpt lat="45.12502" lon="5.91194"><time>2000-01-01T02:50:32.000Z</time></trkpt><trkpt lat="45.125" lon="5.91191"><time>2000-01-01T02:50:42.000Z</time></trkpt><trkpt lat="45.12498" lon="5.91185"><time>2000-01-01T02:50:52.000Z</time></trkpt><trkpt lat="45.12499" lon="5.91181"><time>2000-01-01T02:51:02.000Z</time></trkpt><trkpt lat="45.12504" lon="5.91167"><ele>2166</ele><time>2000-01-01T02:51:12.000Z</time></trkpt><trkpt lat="45.12508" lon="5.91143"><time>2000-01-01T02:51:22.000Z</time></trkpt><trkpt lat="45.12508" lon="5.91116"><ele>2161</ele><time>2000-01-01T02:51:32.000Z</time></trkpt><trkpt lat="45.12515" lon="5.91083"><ele>2160</ele><time>2000-01-01T02:51:42.000Z</time></trkpt><trkpt lat="45.12516" lon="5.91063"><time>2000-01-01T02:51:52.000Z</time></trkpt><trkpt lat="45.1252" lon="5.91045"><ele>2160</ele><time>2000-01-01T02:52:02.000Z</time></trkpt><trkpt lat="45.12521" lon="5.9104"><time>2000-01-01T02:52:12.000Z</time></trkpt><trkpt lat="45.12521" lon="5.91032"><time>2000-01-01T02:52:22.000Z</time></trkpt><trkpt lat="45.12522" lon="5.91026"><time>2000-01-01T02:52:32.000Z</time></trkpt><trkpt lat="45.12521" lon="5.91022"><time>2000-01-01T02:52:42.000Z</time></trkpt><trkpt lat="45.1252" lon="5.91016"><ele>2152</ele><time>2000-01-01T02:52:52.000Z</time></trkpt><trkpt lat="45.12516" lon="5.91003"><time>2000-01-01T02:53:02.000Z</time></trkpt><trkpt lat="45.12516" lon="5.90992"><time>2000-01-01T02:53:12.000Z</time></trkpt><trkpt lat="45.1251" lon="5.90977"><ele>2145</ele><time>2000-01-01T02:53:22.000Z</time></trkpt><trkpt lat="45.12509" lon="5.90974"><time>2000-01-01T02:53:32.000Z</time></trkpt><trkpt lat="45.12499" lon="5.90958"><time>2000-01-01T02:53:42.000Z</time></trkpt><trkpt lat="45.1249" lon="5.9094"><ele>2131</ele><time>2000-01-01T02:53:52.000Z</time></trkpt><trkpt lat="45.12488" lon="5.90933"><time>2000-01-01T02:54:02.000Z</time></trkpt><trkpt lat="45.12486" lon="5.90921"><time>2000-01-01T02:54:12.000Z</time></trkpt><trkpt lat="45.12483" lon="5.90917"><time>2000-01-01T02:54:22.000Z</time></trkpt><trkpt lat="45.12478" lon="5.90919"><ele>2131</ele><time>2000-01-01T02:54:32.000Z</time></trkpt><trkpt lat="45.12473" lon="5.90927"><time>2000-01-01T02:54:42.000Z</time></trkpt><trkpt lat="45.12471" lon="5.90938"><time>2000-01-01T02:54:52.000Z</time></trkpt><trkpt lat="45.12469" lon="5.90943"><ele>2124</ele><time>2000-01-01T02:55:02.000Z</time></trkpt><trkpt lat="45.12469" lon="5.90947"><time>2000-01-01T02:55:12.000Z</time></trkpt><trkpt lat="45.12467" lon="5.90949"><time>2000-01-01T02:55:22.000Z</time></trkpt><trkpt lat="45.12466" lon="5.90948"><time>2000-01-01T02:55:32.000Z</time></trkpt><trkpt lat="45.12464" lon="5.90943"><time>2000-01-01T02:55:42.000Z</time></trkpt><trkpt lat="45.1246" lon="5.90936"><time>2000-01-01T02:55:52.000Z</time></trkpt><trkpt lat="45.12454" lon="5.90932"><ele>2117</ele><time>2000-01-01T02:56:02.000Z</time></trkpt><trkpt lat="45.12449" lon="5.90918"><time>2000-01-01T02:56:12.000Z</time></trkpt><trkpt lat="45.12449" lon="5.90917"><time>2000-01-01T02:56:22.000Z</time></trkpt><trkpt lat="45.12454" lon="5.90906"><ele>2117</ele><time>2000-01-01T02:56:32.000Z</time></trkpt><trkpt lat="45.12452" lon="5.90901"><time>2000-01-01T02:56:42.000Z</time></trkpt><trkpt lat="45.12449" lon="5.90891"><time>2000-01-01T02:56:52.000Z</time></trkpt><trkpt lat="45.12449" lon="5.9089"><time>2000-01-01T02:57:02.000Z</time></trkpt><trkpt lat="45.12427" lon="5.90906"><ele>2110</ele><time>2000-01-01T02:57:12.000Z</time></trkpt><trkpt lat="45.12426" lon="5.90907"><time>2000-01-01T02:57:22.000Z</time></trkpt><trkpt lat="45.12417" lon="5.90921"><time>2000-01-01T02:57:32.000Z</time></trkpt><trkpt lat="45.12416" lon="5.90927"><ele>2101</ele><time>2000-01-01T02:57:42.000Z</time></trkpt><trkpt lat="45.12411" lon="5.90938"><time>2000-01-01T02:57:52.000Z</time></trkpt><trkpt lat="45.1241" lon="5.90943"><time>2000-01-01T02:58:02.000Z</time></trkpt><trkpt lat="45.12409" lon="5.90961"><ele>2088</ele><time>2000-01-01T02:58:12.000Z</time></trkpt><trkpt lat="45.12409" lon="5.90968"><time>2000-01-01T02:58:22.000Z</time></trkpt><trkpt lat="45.12398" lon="5.90997"><ele>2087</ele><time>2000-01-01T02:58:32.000Z</time></trkpt><trkpt lat="45.12382" lon="5.91025"><ele>2089</ele><time>2000-01-01T02:58:42.000Z</time></trkpt><trkpt lat="45.1238" lon="5.91028"><time>2000-01-01T02:58:52.000Z</time></trkpt><trkpt lat="45.12376" lon="5.9103"><time>2000-01-01T02:59:02.000Z</time></trkpt><trkpt lat="45.12367" lon="5.91037"><time>2000-01-01T02:59:12.000Z</time></trkpt><trkpt lat="45.12359" lon="5.91041"><ele>2088</ele><time>2000-01-01T02:59:22.000Z</time></trkpt><trkpt lat="45.12347" lon="5.91047"><time>2000-01-01T02:59:32.000Z</time></trkpt><trkpt lat="45.12345" lon="5.91047"><time>2000-01-01T02:59:42.000Z</time></trkpt><trkpt lat="45.12343" lon="5.91047"><time>2000-01-01T02:59:52.000Z</time></trkpt><trkpt lat="45.1233" lon="5.91047"><ele>2088</ele><time>2000-01-01T03:00:02.000Z</time></trkpt><trkpt lat="45.12309" lon="5.91047"><ele>2087</ele><time>2000-01-01T03:00:12.000Z</time></trkpt><trkpt lat="45.12308" lon="5.91047"><time>2000-01-01T03:00:22.000Z</time></trkpt><trkpt lat="45.12303" lon="5.91041"><time>2000-01-01T03:00:32.000Z</time></trkpt><trkpt lat="45.123" lon="5.91038"><time>2000-01-01T03:00:42.000Z</time></trkpt><trkpt lat="45.12295" lon="5.91035"><time>2000-01-01T03:00:52.000Z</time></trkpt><trkpt lat="45.12289" lon="5.91032"><ele>2087</ele><time>2000-01-01T03:01:02.000Z</time></trkpt><trkpt lat="45.12283" lon="5.91024"><time>2000-01-01T03:01:12.000Z</time></trkpt><trkpt lat="45.12281" lon="5.91021"><time>2000-01-01T03:01:22.000Z</time></trkpt><trkpt lat="45.12276" lon="5.91015"><time>2000-01-01T03:01:32.000Z</time></trkpt><trkpt lat="45.1227" lon="5.91009"><ele>2091</ele><time>2000-01-01T03:01:42.000Z</time></trkpt><trkpt lat="45.12267" lon="5.91006"><time>2000-01-01T03:01:52.000Z</time></trkpt><trkpt lat="45.12262" lon="5.91003"><time>2000-01-01T03:02:02.000Z</time></trkpt><trkpt lat="45.12254" lon="5.91"><time>2000-01-01T03:02:12.000Z</time></trkpt><trkpt lat="45.12243" lon="5.91001"><ele>2091</ele><time>2000-01-01T03:02:22.000Z</time></trkpt><trkpt lat="45.12238" lon="5.91"><time>2000-01-01T03:02:32.000Z</time></trkpt><trkpt lat="45.12228" lon="5.90997"><time>2000-01-01T03:02:42.000Z</time></trkpt><trkpt lat="45.12225" lon="5.90997"><time>2000-01-01T03:02:52.000Z</time></trkpt><trkpt lat="45.12222" lon="5.90996"><ele>2089</ele><time>2000-01-01T03:03:02.000Z</time></trkpt><trkpt lat="45.1222" lon="5.90994"><time>2000-01-01T03:03:12.000Z</time></trkpt><trkpt lat="45.12216" lon="5.90991"><time>2000-01-01T03:03:22.000Z</time></trkpt><trkpt lat="45.12214" lon="5.90987"><time>2000-01-01T03:03:32.000Z</time></trkpt><trkpt lat="45.12212" lon="5.90981"><time>2000-01-01T03:03:42.000Z</time></trkpt><trkpt lat="45.12211" lon="5.9098"><time>2000-01-01T03:03:52.000Z</time></trkpt><trkpt lat="45.12209" lon="5.90979"><time>2000-01-01T03:04:02.000Z</time></trkpt><trkpt lat="45.12205" lon="5.90976"><ele>2085</ele><time>2000-01-01T03:04:12.000Z</time></trkpt><trkpt lat="45.12202" lon="5.90976"><time>2000-01-01T03:04:22.000Z</time></trkpt><trkpt lat="45.12198" lon="5.90976"><time>2000-01-01T03:04:32.000Z</time></trkpt><trkpt lat="45.12196" lon="5.90976"><time>2000-01-01T03:04:42.000Z</time></trkpt><trkpt lat="45.12188" lon="5.90974"><time>2000-01-01T03:04:52.000Z</time></trkpt><trkpt lat="45.12174" lon="5.90971"><ele>2081</ele><time>2000-01-01T03:05:02.000Z</time></trkpt><trkpt lat="45.12161" lon="5.90968"><time>2000-01-01T03:05:12.000Z</time></trkpt><trkpt lat="45.12155" lon="5.90961"><ele>2080</ele><time>2000-01-01T03:05:22.000Z</time></trkpt><trkpt lat="45.12153" lon="5.9096"><time>2000-01-01T03:05:32.000Z</time></trkpt><trkpt lat="45.1215" lon="5.90958"><time>2000-01-01T03:05:42.000Z</time></trkpt><trkpt lat="45.12143" lon="5.90956"><time>2000-01-01T03:05:52.000Z</time></trkpt><trkpt lat="45.12143" lon="5.90956"><time>2000-01-01T03:06:02.000Z</time></trkpt><trkpt lat="45.12138" lon="5.90942"><ele>2079</ele><time>2000-01-01T03:06:12.000Z</time></trkpt><trkpt lat="45.12137" lon="5.90941"><time>2000-01-01T03:06:22.000Z</time></trkpt><trkpt lat="45.12133" lon="5.9094"><time>2000-01-01T03:06:32.000Z</time></trkpt><trkpt lat="45.12131" lon="5.90939"><time>2000-01-01T03:06:42.000Z</time></trkpt><trkpt lat="45.12124" lon="5.90941"><time>2000-01-01T03:06:52.000Z</time></trkpt><trkpt lat="45.12121" lon="5.90942"><time>2000-01-01T03:07:02.000Z</time></trkpt><trkpt lat="45.12115" lon="5.90934"><ele>2079</ele><time>2000-01-01T03:07:12.000Z</time></trkpt><trkpt lat="45.12111" lon="5.90929"><time>2000-01-01T03:07:22.000Z</time></trkpt><trkpt lat="45.12105" lon="5.9092"><time>2000-01-01T03:07:32.000Z</time></trkpt><trkpt lat="45.12103" lon="5.90918"><time>2000-01-01T03:07:42.000Z</time></trkpt><trkpt lat="45.12095" lon="5.9091"><ele>2076</ele><time>2000-01-01T03:07:52.000Z</time></trkpt><trkpt lat="45.12094" lon="5.90908"><time>2000-01-01T03:08:02.000Z</time></trkpt><trkpt lat="45.1209" lon="5.90903"><time>2000-01-01T03:08:12.000Z</time></trkpt><trkpt lat="45.12087" lon="5.90898"><time>2000-01-01T03:08:22.000Z</time></trkpt><trkpt lat="45.12086" lon="5.90896"><time>2000-01-01T03:08:32.000Z</time></trkpt><trkpt lat="45.12083" lon="5.90884"><ele>2076</ele><time>2000-01-01T03:08:42.000Z</time></trkpt><trkpt lat="45.1208" lon="5.90878"><time>2000-01-01T03:08:52.000Z</time></trkpt><trkpt lat="45.12077" lon="5.90874"><time>2000-01-01T03:09:02.000Z</time></trkpt><trkpt lat="45.12073" lon="5.90872"><time>2000-01-01T03:09:12.000Z</time></trkpt><trkpt lat="45.1207" lon="5.9087"><time>2000-01-01T03:09:22.000Z</time></trkpt><trkpt lat="45.12065" lon="5.90866"><ele>2076</ele><time>2000-01-01T03:09:32.000Z</time></trkpt><trkpt lat="45.1206" lon="5.90862"><time>2000-01-01T03:09:42.000Z</time></trkpt><trkpt lat="45.12059" lon="5.90861"><time>2000-01-01T03:09:52.000Z</time></trkpt><trkpt lat="45.12048" lon="5.9086"><time>2000-01-01T03:10:02.000Z</time></trkpt><trkpt lat="45.12041" lon="5.90858"><ele>2076</ele><time>2000-01-01T03:10:12.000Z</time></trkpt><trkpt lat="45.12029" lon="5.90856"><time>2000-01-01T03:10:22.000Z</time></trkpt><trkpt lat="45.12026" lon="5.90849"><time>2000-01-01T03:10:32.000Z</time></trkpt><trkpt lat="45.12023" lon="5.90843"><ele>2080</ele><time>2000-01-01T03:10:42.000Z</time></trkpt><trkpt lat="45.12015" lon="5.90831"><time>2000-01-01T03:10:52.000Z</time></trkpt><trkpt lat="45.12015" lon="5.9083"><time>2000-01-01T03:11:02.000Z</time></trkpt><trkpt lat="45.12" lon="5.90813"><ele>2080</ele><time>2000-01-01T03:11:12.000Z</time></trkpt><trkpt lat="45.11999" lon="5.90811"><time>2000-01-01T03:11:22.000Z</time></trkpt><trkpt lat="45.11994" lon="5.90791"><time>2000-01-01T03:11:32.000Z</time></trkpt><trkpt lat="45.11991" lon="5.90786"><ele>2080</ele><time>2000-01-01T03:11:42.000Z</time></trkpt><trkpt lat="45.11989" lon="5.90781"><time>2000-01-01T03:11:52.000Z</time></trkpt><trkpt lat="45.11988" lon="5.9078"><time>2000-01-01T03:12:02.000Z</time></trkpt><trkpt lat="45.11982" lon="5.90774"><time>2000-01-01T03:12:12.000Z</time></trkpt><trkpt lat="45.11975" lon="5.90767"><ele>2068</ele><time>2000-01-01T03:12:22.000Z</time></trkpt><trkpt lat="45.11974" lon="5.90767"><time>2000-01-01T03:12:32.000Z</time></trkpt><trkpt lat="45.11959" lon="5.90765"><time>2000-01-01T03:12:42.000Z</time></trkpt><trkpt lat="45.11951" lon="5.90765"><ele>2057</ele><time>2000-01-01T03:12:52.000Z</time></trkpt><trkpt lat="45.1195" lon="5.90764"><time>2000-01-01T03:13:02.000Z</time></trkpt><trkpt lat="45.11941" lon="5.90759"><time>2000-01-01T03:13:12.000Z</time></trkpt><trkpt lat="45.11934" lon="5.90754"><time>2000-01-01T03:13:22.000Z</time></trkpt><trkpt lat="45.11926" lon="5.90747"><ele>2054</ele><time>2000-01-01T03:13:32.000Z</time></trkpt><trkpt lat="45.11923" lon="5.90745"><time>2000-01-01T03:13:42.000Z</time></trkpt><trkpt lat="45.11923" lon="5.90745"><time>2000-01-01T03:13:52.000Z</time></trkpt><trkpt lat="45.11918" lon="5.90733"><time>2000-01-01T03:14:02.000Z</time></trkpt><trkpt lat="45.11917" lon="5.90732"><time>2000-01-01T03:14:12.000Z</time></trkpt><trkpt lat="45.11916" lon="5.90732"><time>2000-01-01T03:14:22.000Z</time></trkpt><trkpt lat="45.11912" lon="5.90729"><time>2000-01-01T03:14:32.000Z</time></trkpt><trkpt lat="45.11911" lon="5.90728"><ele>2051</ele><time>2000-01-01T03:14:42.000Z</time></trkpt><trkpt lat="45.11907" lon="5.90723"><time>2000-01-01T03:14:52.000Z</time></trkpt><trkpt lat="45.11906" lon="5.90722"><time>2000-01-01T03:15:02.000Z</time></trkpt><trkpt lat="45.11904" lon="5.90721"><time>2000-01-01T03:15:12.000Z</time></trkpt><trkpt lat="45.11894" lon="5.90718"><ele>2045</ele><time>2000-01-01T03:15:22.000Z</time></trkpt><trkpt lat="45.11893" lon="5.90717"><time>2000-01-01T03:15:32.000Z</time></trkpt><trkpt lat="45.11891" lon="5.90712"><time>2000-01-01T03:15:42.000Z</time></trkpt><trkpt lat="45.1189" lon="5.90711"><time>2000-01-01T03:15:52.000Z</time></trkpt><trkpt lat="45.11888" lon="5.90709"><time>2000-01-01T03:16:02.000Z</time></trkpt><trkpt lat="45.11877" lon="5.90699"><ele>2045</ele><time>2000-01-01T03:16:12.000Z</time></trkpt><trkpt lat="45.1187" lon="5.90693"><time>2000-01-01T03:16:22.000Z</time></trkpt><trkpt lat="45.11869" lon="5.90692"><time>2000-01-01T03:16:32.000Z</time></trkpt><trkpt lat="45.11867" lon="5.90683"><time>2000-01-01T03:16:42.000Z</time></trkpt><trkpt lat="45.11866" lon="5.90681"><time>2000-01-01T03:16:52.000Z</time></trkpt><trkpt lat="45.11865" lon="5.90666"><ele>2044</ele><time>2000-01-01T03:17:02.000Z</time></trkpt><trkpt lat="45.11856" lon="5.90659"><time>2000-01-01T03:17:12.000Z</time></trkpt><trkpt lat="45.11854" lon="5.90656"><time>2000-01-01T03:17:22.000Z</time></trkpt><trkpt lat="45.11846" lon="5.90653"><ele>2044</ele><time>2000-01-01T03:17:32.000Z</time></trkpt><trkpt lat="45.11822" lon="5.90642"><ele>2044</ele><time>2000-01-01T03:17:42.000Z</time></trkpt><trkpt lat="45.11821" lon="5.90638"><time>2000-01-01T03:17:52.000Z</time></trkpt><trkpt lat="45.11817" lon="5.90632"><time>2000-01-01T03:18:02.000Z</time></trkpt><trkpt lat="45.11815" lon="5.90628"><time>2000-01-01T03:18:12.000Z</time></trkpt><trkpt lat="45.11812" lon="5.90625"><time>2000-01-01T03:18:22.000Z</time></trkpt><trkpt lat="45.11801" lon="5.90611"><ele>2036</ele><time>2000-01-01T03:18:32.000Z</time></trkpt><trkpt lat="45.11797" lon="5.90603"><time>2000-01-01T03:18:42.000Z</time></trkpt><trkpt lat="45.11791" lon="5.9059"><time>2000-01-01T03:18:52.000Z</time></trkpt><trkpt lat="45.11785" lon="5.90583"><ele>2029</ele><time>2000-01-01T03:19:02.000Z</time></trkpt><trkpt lat="45.11777" lon="5.90575"><time>2000-01-01T03:19:12.000Z</time></trkpt><trkpt lat="45.11771" lon="5.90568"><time>2000-01-01T03:19:22.000Z</time></trkpt><trkpt lat="45.11763" lon="5.90564"><ele>2014</ele><time>2000-01-01T03:19:32.000Z</time></trkpt><trkpt lat="45.11748" lon="5.90555"><time>2000-01-01T03:19:42.000Z</time></trkpt><trkpt lat="45.11746" lon="5.90552"><ele>2014</ele><time>2000-01-01T03:19:52.000Z</time></trkpt><trkpt lat="45.11738" lon="5.90543"><time>2000-01-01T03:20:02.000Z</time></trkpt><trkpt lat="45.11731" lon="5.90534"><time>2000-01-01T03:20:12.000Z</time></trkpt><trkpt lat="45.11716" lon="5.90519"><ele>2005</ele><time>2000-01-01T03:20:22.000Z</time></trkpt><trkpt lat="45.1171" lon="5.90513"><time>2000-01-01T03:20:32.000Z</time></trkpt><trkpt lat="45.11706" lon="5.90507"><time>2000-01-01T03:20:42.000Z</time></trkpt><trkpt lat="45.11702" lon="5.90501"><time>2000-01-01T03:20:52.000Z</time></trkpt><trkpt lat="45.11695" lon="5.90498"><ele>1996</ele><time>2000-01-01T03:21:02.000Z</time></trkpt><trkpt lat="45.11693" lon="5.90497"><time>2000-01-01T03:21:12.000Z</time></trkpt><trkpt lat="45.1169" lon="5.90493"><time>2000-01-01T03:21:22.000Z</time></trkpt><trkpt lat="45.11682" lon="5.9049"><time>2000-01-01T03:21:32.000Z</time></trkpt><trkpt lat="45.11678" lon="5.90485"><ele>1982</ele><time>2000-01-01T03:21:42.000Z</time></trkpt><trkpt lat="45.1167" lon="5.90486"><time>2000-01-01T03:21:52.000Z</time></trkpt><trkpt lat="45.11658" lon="5.90486"><ele>1982</ele><time>2000-01-01T03:22:02.000Z</time></trkpt><trkpt lat="45.11651" lon="5.90483"><time>2000-01-01T03:22:12.000Z</time></trkpt><trkpt lat="45.11643" lon="5.90479"><time>2000-01-01T03:22:22.000Z</time></trkpt><trkpt lat="45.11635" lon="5.90476"><ele>1982</ele><time>2000-01-01T03:22:32.000Z</time></trkpt><trkpt lat="45.1163" lon="5.90468"><time>2000-01-01T03:22:42.000Z</time></trkpt><trkpt lat="45.11618" lon="5.90465"><ele>1982</ele><time>2000-01-01T03:22:52.000Z</time></trkpt><trkpt lat="45.11603" lon="5.90461"><time>2000-01-01T03:23:02.000Z</time></trkpt><trkpt lat="45.11595" lon="5.90458"><ele>1983</ele><time>2000-01-01T03:23:12.000Z</time></trkpt><trkpt lat="45.11589" lon="5.90458"><time>2000-01-01T03:23:22.000Z</time></trkpt><trkpt lat="45.11584" lon="5.90459"><time>2000-01-01T03:23:32.000Z</time></trkpt><trkpt lat="45.1158" lon="5.90458"><time>2000-01-01T03:23:42.000Z</time></trkpt><trkpt lat="45.11574" lon="5.90455"><ele>1983</ele><time>2000-01-01T03:23:52.000Z</time></trkpt><trkpt lat="45.11559" lon="5.90456"><time>2000-01-01T03:24:02.000Z</time></trkpt><trkpt lat="45.11556" lon="5.90455"><time>2000-01-01T03:24:12.000Z</time></trkpt><trkpt lat="45.11541" lon="5.90451"><ele>1976</ele><time>2000-01-01T03:24:22.000Z</time></trkpt><trkpt lat="45.11527" lon="5.90448"><time>2000-01-01T03:24:32.000Z</time></trkpt><trkpt lat="45.1152" lon="5.9044"><ele>1974</ele><time>2000-01-01T03:24:42.000Z</time></trkpt><trkpt lat="45.11515" lon="5.90435"><time>2000-01-01T03:24:52.000Z</time></trkpt><trkpt lat="45.11503" lon="5.90428"><ele>1974</ele><time>2000-01-01T03:25:02.000Z</time></trkpt><trkpt lat="45.11502" lon="5.90426"><time>2000-01-01T03:25:12.000Z</time></trkpt><trkpt lat="45.11493" lon="5.90405"><ele>1971</ele><time>2000-01-01T03:25:22.000Z</time></trkpt><trkpt lat="45.11488" lon="5.90397"><time>2000-01-01T03:25:32.000Z</time></trkpt><trkpt lat="45.11487" lon="5.90395"><time>2000-01-01T03:25:42.000Z</time></trkpt><trkpt lat="45.11473" lon="5.90387"><ele>1965</ele><time>2000-01-01T03:25:52.000Z</time></trkpt><trkpt lat="45.11464" lon="5.90383"><time>2000-01-01T03:26:02.000Z</time></trkpt><trkpt lat="45.11453" lon="5.90373"><ele>1961</ele><time>2000-01-01T03:26:12.000Z</time></trkpt><trkpt lat="45.11436" lon="5.90373"><time>2000-01-01T03:26:22.000Z</time></trkpt><trkpt lat="45.11434" lon="5.9037"><ele>1958</ele><time>2000-01-01T03:26:32.000Z</time></trkpt><trkpt lat="45.11433" lon="5.90351"><time>2000-01-01T03:26:42.000Z</time></trkpt><trkpt lat="45.11429" lon="5.90338"><ele>1954</ele><time>2000-01-01T03:26:52.000Z</time></trkpt><trkpt lat="45.11423" lon="5.90332"><time>2000-01-01T03:27:02.000Z</time></trkpt><trkpt lat="45.11412" lon="5.90326"><ele>1954</ele><time>2000-01-01T03:27:12.000Z</time></trkpt><trkpt lat="45.11408" lon="5.90324"><time>2000-01-01T03:27:22.000Z</time></trkpt><trkpt lat="45.11396" lon="5.9031"><ele>1948</ele><time>2000-01-01T03:27:32.000Z</time></trkpt><trkpt lat="45.1139" lon="5.90303"><time>2000-01-01T03:27:42.000Z</time></trkpt><trkpt lat="45.11381" lon="5.90295"><time>2000-01-01T03:27:52.000Z</time></trkpt><trkpt lat="45.11379" lon="5.90294"><ele>1936</ele><time>2000-01-01T03:28:02.000Z</time></trkpt><trkpt lat="45.11366" lon="5.90278"><time>2000-01-01T03:28:12.000Z</time></trkpt><trkpt lat="45.11354" lon="5.90268"><ele>1935</ele><time>2000-01-01T03:28:22.000Z</time></trkpt><trkpt lat="45.11344" lon="5.90261"><time>2000-01-01T03:28:32.000Z</time></trkpt><trkpt lat="45.1133" lon="5.90253"><ele>1934</ele><time>2000-01-01T03:28:42.000Z</time></trkpt><trkpt lat="45.11326" lon="5.9025"><time>2000-01-01T03:28:52.000Z</time></trkpt><trkpt lat="45.11308" lon="5.90231"><ele>1934</ele><time>2000-01-01T03:29:02.000Z</time></trkpt><trkpt lat="45.11297" lon="5.90214"><time>2000-01-01T03:29:12.000Z</time></trkpt><trkpt lat="45.11286" lon="5.90195"><ele>1933</ele><time>2000-01-01T03:29:22.000Z</time></trkpt><trkpt lat="45.11286" lon="5.90177"><time>2000-01-01T03:29:32.000Z</time></trkpt><trkpt lat="45.11286" lon="5.90172"><time>2000-01-01T03:29:42.000Z</time></trkpt><trkpt lat="45.11287" lon="5.90166"><ele>1926</ele><time>2000-01-01T03:29:52.000Z</time></trkpt><trkpt lat="45.11288" lon="5.90151"><time>2000-01-01T03:30:02.000Z</time></trkpt><trkpt lat="45.11288" lon="5.90134"><ele>1923</ele><time>2000-01-01T03:30:12.000Z</time></trkpt><trkpt lat="45.11279" lon="5.90113"><time>2000-01-01T03:30:22.000Z</time></trkpt><trkpt lat="45.11272" lon="5.90102"><ele>1923</ele><time>2000-01-01T03:30:32.000Z</time></trkpt><trkpt lat="45.11268" lon="5.90095"><time>2000-01-01T03:30:42.000Z</time></trkpt><trkpt lat="45.11256" lon="5.90065"><ele>1923</ele><time>2000-01-01T03:30:52.000Z</time></trkpt><trkpt lat="45.11253" lon="5.90057"><time>2000-01-01T03:31:02.000Z</time></trkpt><trkpt lat="45.11247" lon="5.90045"><time>2000-01-01T03:31:12.000Z</time></trkpt><trkpt lat="45.11238" lon="5.90025"><ele>1926</ele><time>2000-01-01T03:31:22.000Z</time></trkpt><trkpt lat="45.11213" lon="5.90012"><ele>1927</ele><time>2000-01-01T03:31:32.000Z</time></trkpt><trkpt lat="45.11193" lon="5.90001"><ele>1927</ele><time>2000-01-01T03:31:42.000Z</time></trkpt><trkpt lat="45.11188" lon="5.89991"><time>2000-01-01T03:31:52.000Z</time></trkpt><trkpt lat="45.11183" lon="5.89982"><time>2000-01-01T03:32:02.000Z</time></trkpt><trkpt lat="45.11174" lon="5.89967"><ele>1927</ele><time>2000-01-01T03:32:12.000Z</time></trkpt><trkpt lat="45.11164" lon="5.89952"><time>2000-01-01T03:32:22.000Z</time></trkpt><trkpt lat="45.11162" lon="5.8995"><time>2000-01-01T03:32:32.000Z</time></trkpt><trkpt lat="45.11155" lon="5.89946"><ele>1927</ele><time>2000-01-01T03:32:42.000Z</time></trkpt><trkpt lat="45.11145" lon="5.8994"><time>2000-01-01T03:32:52.000Z</time></trkpt><trkpt lat="45.11139" lon="5.89936"><time>2000-01-01T03:33:02.000Z</time></trkpt><trkpt lat="45.11135" lon="5.89933"><ele>1927</ele><time>2000-01-01T03:33:12.000Z</time></trkpt><trkpt lat="45.11127" lon="5.89925"><time>2000-01-01T03:33:22.000Z</time></trkpt><trkpt lat="45.11116" lon="5.89909"><ele>1925</ele><time>2000-01-01T03:33:32.000Z</time></trkpt><trkpt lat="45.11116" lon="5.89908"><time>2000-01-01T03:33:42.000Z</time></trkpt><trkpt lat="45.11113" lon="5.89894"><time>2000-01-01T03:33:52.000Z</time></trkpt><trkpt lat="45.11112" lon="5.89878"><ele>1924</ele><time>2000-01-01T03:34:02.000Z</time></trkpt><trkpt lat="45.11115" lon="5.89867"><time>2000-01-01T03:34:12.000Z</time></trkpt><trkpt lat="45.11112" lon="5.89853"><time>2000-01-01T03:34:22.000Z</time></trkpt><trkpt lat="45.1111" lon="5.89845"><ele>1924</ele><time>2000-01-01T03:34:32.000Z</time></trkpt><trkpt lat="45.11111" lon="5.8984"><time>2000-01-01T03:34:42.000Z</time></trkpt><trkpt lat="45.11109" lon="5.89829"><time>2000-01-01T03:34:52.000Z</time></trkpt><trkpt lat="45.11112" lon="5.89818"><ele>1922</ele><time>2000-01-01T03:35:02.000Z</time></trkpt><trkpt lat="45.11111" lon="5.89809"><time>2000-01-01T03:35:12.000Z</time></trkpt><trkpt lat="45.11111" lon="5.89792"><time>2000-01-01T03:35:22.000Z</time></trkpt><trkpt lat="45.11112" lon="5.89777"><ele>1922</ele><time>2000-01-01T03:35:32.000Z</time></trkpt><trkpt lat="45.11116" lon="5.89767"><time>2000-01-01T03:35:42.000Z</time></trkpt><trkpt lat="45.11118" lon="5.89757"><time>2000-01-01T03:35:52.000Z</time></trkpt><trkpt lat="45.11123" lon="5.89749"><ele>1922</ele><time>2000-01-01T03:36:02.000Z</time></trkpt><trkpt lat="45.11124" lon="5.8973"><time>2000-01-01T03:36:12.000Z</time></trkpt><trkpt lat="45.11126" lon="5.89717"><ele>1922</ele><time>2000-01-01T03:36:22.000Z</time></trkpt><trkpt lat="45.11131" lon="5.89693"><time>2000-01-01T03:36:32.000Z</time></trkpt><trkpt lat="45.11133" lon="5.89686"><ele>1935</ele><time>2000-01-01T03:36:42.000Z</time></trkpt><trkpt lat="45.11135" lon="5.89672"><time>2000-01-01T03:36:52.000Z</time></trkpt><trkpt lat="45.11138" lon="5.89651"><ele>1936</ele><time>2000-01-01T03:37:02.000Z</time></trkpt><trkpt lat="45.11138" lon="5.89648"><time>2000-01-01T03:37:12.000Z</time></trkpt><trkpt lat="45.11138" lon="5.89645"><time>2000-01-01T03:37:22.000Z</time></trkpt><trkpt lat="45.11137" lon="5.89633"><time>2000-01-01T03:37:32.000Z</time></trkpt><trkpt lat="45.11135" lon="5.89622"><ele>1934</ele><time>2000-01-01T03:37:42.000Z</time></trkpt><trkpt lat="45.1113" lon="5.89611"><time>2000-01-01T03:37:52.000Z</time></trkpt><trkpt lat="45.11124" lon="5.89596"><ele>1938</ele><time>2000-01-01T03:38:02.000Z</time></trkpt><trkpt lat="45.11129" lon="5.89584"><time>2000-01-01T03:38:12.000Z</time></trkpt><trkpt lat="45.11135" lon="5.89575"><time>2000-01-01T03:38:22.000Z</time></trkpt><trkpt lat="45.11139" lon="5.89567"><ele>1943</ele><time>2000-01-01T03:38:32.000Z</time></trkpt><trkpt lat="45.11142" lon="5.89562"><time>2000-01-01T03:38:42.000Z</time></trkpt><trkpt lat="45.11143" lon="5.89553"><time>2000-01-01T03:38:52.000Z</time></trkpt><trkpt lat="45.11147" lon="5.89531"><ele>1944</ele><time>2000-01-01T03:39:02.000Z</time></trkpt><trkpt lat="45.11147" lon="5.8952"><time>2000-01-01T03:39:12.000Z</time></trkpt><trkpt lat="45.11153" lon="5.89516"><time>2000-01-01T03:39:22.000Z</time></trkpt><trkpt lat="45.11155" lon="5.89506"><ele>1940</ele><time>2000-01-01T03:39:32.000Z</time></trkpt><trkpt lat="45.11155" lon="5.89501"><time>2000-01-01T03:39:42.000Z</time></trkpt><trkpt lat="45.11157" lon="5.8949"><time>2000-01-01T03:39:52.000Z</time></trkpt><trkpt lat="45.11156" lon="5.89482"><time>2000-01-01T03:40:02.000Z</time></trkpt><trkpt lat="45.11159" lon="5.89455"><ele>1942</ele><time>2000-01-01T03:40:12.000Z</time></trkpt><trkpt lat="45.11165" lon="5.89444"><time>2000-01-01T03:40:22.000Z</time></trkpt><trkpt lat="45.11168" lon="5.89427"><ele>1939</ele><time>2000-01-01T03:40:32.000Z</time></trkpt><trkpt lat="45.11175" lon="5.89385"><ele>1937</ele><time>2000-01-01T03:40:42.000Z</time></trkpt><trkpt lat="45.11185" lon="5.89354"><ele>1937</ele><time>2000-01-01T03:40:52.000Z</time></trkpt><trkpt lat="45.11188" lon="5.89341"><time>2000-01-01T03:41:02.000Z</time></trkpt><trkpt lat="45.11198" lon="5.89324"><ele>1933</ele><time>2000-01-01T03:41:12.000Z</time></trkpt><trkpt lat="45.11204" lon="5.89316"><time>2000-01-01T03:41:22.000Z</time></trkpt><trkpt lat="45.11206" lon="5.89308"><time>2000-01-01T03:41:32.000Z</time></trkpt><trkpt lat="45.11206" lon="5.89295"><ele>1936</ele><time>2000-01-01T03:41:42.000Z</time></trkpt><trkpt lat="45.11212" lon="5.89283"><time>2000-01-01T03:41:52.000Z</time></trkpt><trkpt lat="45.11215" lon="5.89273"><time>2000-01-01T03:42:02.000Z</time></trkpt><trkpt lat="45.11222" lon="5.89263"><ele>1933</ele><time>2000-01-01T03:42:12.000Z</time></trkpt><trkpt lat="45.11219" lon="5.89254"><time>2000-01-01T03:42:22.000Z</time></trkpt><trkpt lat="45.11211" lon="5.89248"><time>2000-01-01T03:42:32.000Z</time></trkpt><trkpt lat="45.11207" lon="5.89239"><ele>1933</ele><time>2000-01-01T03:42:42.000Z</time></trkpt><trkpt lat="45.11208" lon="5.89232"><time>2000-01-01T03:42:52.000Z</time></trkpt><trkpt lat="45.11204" lon="5.8922"><time>2000-01-01T03:43:02.000Z</time></trkpt><trkpt lat="45.11199" lon="5.89208"><ele>1933</ele><time>2000-01-01T03:43:12.000Z</time></trkpt><trkpt lat="45.11193" lon="5.89198"><time>2000-01-01T03:43:22.000Z</time></trkpt><trkpt lat="45.11189" lon="5.89188"><time>2000-01-01T03:43:32.000Z</time></trkpt><trkpt lat="45.11184" lon="5.89173"><ele>1929</ele><time>2000-01-01T03:43:42.000Z</time></trkpt><trkpt lat="45.11182" lon="5.89162"><time>2000-01-01T03:43:52.000Z</time></trkpt><trkpt lat="45.1118" lon="5.89159"><time>2000-01-01T03:44:02.000Z</time></trkpt><trkpt lat="45.11175" lon="5.89151"><time>2000-01-01T03:44:12.000Z</time></trkpt><trkpt lat="45.11171" lon="5.89143"><ele>1926</ele><time>2000-01-01T03:44:22.000Z</time></trkpt><trkpt lat="45.1117" lon="5.8914"><time>2000-01-01T03:44:32.000Z</time></trkpt><trkpt lat="45.11165" lon="5.89123"><time>2000-01-01T03:44:42.000Z</time></trkpt><trkpt lat="45.1116" lon="5.89113"><ele>1925</ele><time>2000-01-01T03:44:52.000Z</time></trkpt><trkpt lat="45.11156" lon="5.89107"><time>2000-01-01T03:45:02.000Z</time></trkpt><trkpt lat="45.11154" lon="5.89103"><time>2000-01-01T03:45:12.000Z</time></trkpt><trkpt lat="45.11146" lon="5.89093"><ele>1925</ele><time>2000-01-01T03:45:22.000Z</time></trkpt><trkpt lat="45.11145" lon="5.89091"><time>2000-01-01T03:45:32.000Z</time></trkpt><trkpt lat="45.11143" lon="5.89081"><time>2000-01-01T03:45:42.000Z</time></trkpt><trkpt lat="45.1114" lon="5.89074"><time>2000-01-01T03:45:52.000Z</time></trkpt><trkpt lat="45.11135" lon="5.89063"><ele>1925</ele><time>2000-01-01T03:46:02.000Z</time></trkpt><trkpt lat="45.11131" lon="5.8906"><time>2000-01-01T03:46:12.000Z</time></trkpt><trkpt lat="45.11128" lon="5.89059"><time>2000-01-01T03:46:22.000Z</time></trkpt><trkpt lat="45.11117" lon="5.89049"><ele>1916</ele><time>2000-01-01T03:46:32.000Z</time></trkpt><trkpt lat="45.11106" lon="5.89045"><time>2000-01-01T03:46:42.000Z</time></trkpt><trkpt lat="45.11096" lon="5.89037"><ele>1916</ele><time>2000-01-01T03:46:52.000Z</time></trkpt><trkpt lat="45.1109" lon="5.89025"><time>2000-01-01T03:47:02.000Z</time></trkpt><trkpt lat="45.1108" lon="5.89008"><ele>1915</ele><time>2000-01-01T03:47:12.000Z</time></trkpt><trkpt lat="45.11078" lon="5.89005"><time>2000-01-01T03:47:22.000Z</time></trkpt><trkpt lat="45.11074" lon="5.89003"><time>2000-01-01T03:47:32.000Z</time></trkpt><trkpt lat="45.11073" lon="5.8899"><time>2000-01-01T03:47:42.000Z</time></trkpt><trkpt lat="45.11069" lon="5.88976"><ele>1915</ele><time>2000-01-01T03:47:52.000Z</time></trkpt><trkpt lat="45.11067" lon="5.88969"><time>2000-01-01T03:48:02.000Z</time></trkpt><trkpt lat="45.11063" lon="5.8896"><time>2000-01-01T03:48:12.000Z</time></trkpt><trkpt lat="45.1106" lon="5.88957"><time>2000-01-01T03:48:22.000Z</time></trkpt><trkpt lat="45.11055" lon="5.88952"><ele>1914</ele><time>2000-01-01T03:48:32.000Z</time></trkpt><trkpt lat="45.11062" lon="5.88942"><time>2000-01-01T03:48:42.000Z</time></trkpt><trkpt lat="45.11071" lon="5.88923"><ele>1914</ele><time>2000-01-01T03:48:52.000Z</time></trkpt><trkpt lat="45.11078" lon="5.88905"><time>2000-01-01T03:49:02.000Z</time></trkpt><trkpt lat="45.11082" lon="5.88895"><ele>1904</ele><time>2000-01-01T03:49:12.000Z</time></trkpt><trkpt lat="45.11086" lon="5.88882"><time>2000-01-01T03:49:22.000Z</time></trkpt><trkpt lat="45.11093" lon="5.88874"><time>2000-01-01T03:49:32.000Z</time></trkpt><trkpt lat="45.11098" lon="5.88861"><ele>1902</ele><time>2000-01-01T03:49:42.000Z</time></trkpt><trkpt lat="45.11099" lon="5.88852"><time>2000-01-01T03:49:52.000Z</time></trkpt><trkpt lat="45.111" lon="5.88844"><time>2000-01-01T03:50:02.000Z</time></trkpt><trkpt lat="45.11103" lon="5.88837"><time>2000-01-01T03:50:12.000Z</time></trkpt><trkpt lat="45.11108" lon="5.88831"><ele>1900</ele><time>2000-01-01T03:50:22.000Z</time></trkpt><trkpt lat="45.11116" lon="5.88819"><time>2000-01-01T03:50:32.000Z</time></trkpt><trkpt lat="45.11121" lon="5.88807"><ele>1899</ele><time>2000-01-01T03:50:42.000Z</time></trkpt><trkpt lat="45.11122" lon="5.88801"><time>2000-01-01T03:50:52.000Z</time></trkpt><trkpt lat="45.11123" lon="5.88795"><time>2000-01-01T03:51:02.000Z</time></trkpt><trkpt lat="45.11126" lon="5.88787"><time>2000-01-01T03:51:12.000Z</time></trkpt><trkpt lat="45.1113" lon="5.88774"><ele>1898</ele><time>2000-01-01T03:51:22.000Z</time></trkpt><trkpt lat="45.11135" lon="5.88742"><ele>1893</ele><time>2000-01-01T03:51:32.000Z</time></trkpt><trkpt lat="45.11136" lon="5.88726"><time>2000-01-01T03:51:42.000Z</time></trkpt><trkpt lat="45.11136" lon="5.8872"><time>2000-01-01T03:51:52.000Z</time></trkpt><trkpt lat="45.11137" lon="5.88712"><ele>1888</ele><time>2000-01-01T03:52:02.000Z</time></trkpt><trkpt lat="45.11138" lon="5.88703"><time>2000-01-01T03:52:12.000Z</time></trkpt><trkpt lat="45.11139" lon="5.88688"><time>2000-01-01T03:52:22.000Z</time></trkpt><trkpt lat="45.1114" lon="5.8868"><ele>1886</ele><time>2000-01-01T03:52:32.000Z</time></trkpt><trkpt lat="45.11143" lon="5.8867"><time>2000-01-01T03:52:42.000Z</time></trkpt><trkpt lat="45.11143" lon="5.88657"><time>2000-01-01T03:52:52.000Z</time></trkpt><trkpt lat="45.1114" lon="5.88646"><ele>1886</ele><time>2000-01-01T03:53:02.000Z</time></trkpt><trkpt lat="45.11138" lon="5.8863"><time>2000-01-01T03:53:12.000Z</time></trkpt><trkpt lat="45.11137" lon="5.88617"><ele>1887</ele><time>2000-01-01T03:53:22.000Z</time></trkpt><trkpt lat="45.11136" lon="5.88589"><ele>1887</ele><time>2000-01-01T03:53:32.000Z</time></trkpt><trkpt lat="45.11135" lon="5.88576"><time>2000-01-01T03:53:42.000Z</time></trkpt><trkpt lat="45.11133" lon="5.8856"><ele>1884</ele><time>2000-01-01T03:53:52.000Z</time></trkpt><trkpt lat="45.11129" lon="5.88546"><time>2000-01-01T03:54:02.000Z</time></trkpt><trkpt lat="45.11129" lon="5.88534"><time>2000-01-01T03:54:12.000Z</time></trkpt><trkpt lat="45.11135" lon="5.88504"><ele>1873</ele><time>2000-01-01T03:54:22.000Z</time></trkpt><trkpt lat="45.11136" lon="5.88494"><time>2000-01-01T03:54:32.000Z</time></trkpt><trkpt lat="45.11137" lon="5.8848"><time>2000-01-01T03:54:42.000Z</time></trkpt><trkpt lat="45.11139" lon="5.88468"><ele>1869</ele><time>2000-01-01T03:54:52.000Z</time></trkpt><trkpt lat="45.11139" lon="5.88467"><time>2000-01-01T03:55:02.000Z</time></trkpt><trkpt lat="45.1114" lon="5.88465"><time>2000-01-01T03:55:12.000Z</time></trkpt><trkpt lat="45.11144" lon="5.88458"><time>2000-01-01T03:55:22.000Z</time></trkpt><trkpt lat="45.11145" lon="5.88457"><time>2000-01-01T03:55:32.000Z</time></trkpt><trkpt lat="45.11146" lon="5.88456"><time>2000-01-01T03:55:42.000Z</time></trkpt><trkpt lat="45.11156" lon="5.8845"><ele>1866</ele><time>2000-01-01T03:55:52.000Z</time></trkpt><trkpt lat="45.11159" lon="5.88449"><time>2000-01-01T03:56:02.000Z</time></trkpt><trkpt lat="45.11161" lon="5.88445"><time>2000-01-01T03:56:12.000Z</time></trkpt><trkpt lat="45.11163" lon="5.88437"><time>2000-01-01T03:56:22.000Z</time></trkpt><trkpt lat="45.11164" lon="5.88427"><time>2000-01-01T03:56:32.000Z</time></trkpt><trkpt lat="45.11165" lon="5.88414"><ele>1861</ele><time>2000-01-01T03:56:42.000Z</time></trkpt><trkpt lat="45.11164" lon="5.88409"><time>2000-01-01T03:56:52.000Z</time></trkpt><trkpt lat="45.11157" lon="5.88404"><time>2000-01-01T03:57:02.000Z</time></trkpt><trkpt lat="45.11136" lon="5.88386"><ele>1856</ele><time>2000-01-01T03:57:12.000Z</time></trkpt><trkpt lat="45.1113" lon="5.88381"><time>2000-01-01T03:57:22.000Z</time></trkpt><trkpt lat="45.11113" lon="5.88368"><ele>1849</ele><time>2000-01-01T03:57:32.000Z</time></trkpt><trkpt lat="45.11106" lon="5.88364"><time>2000-01-01T03:57:42.000Z</time></trkpt><trkpt lat="45.11106" lon="5.88356"><time>2000-01-01T03:57:52.000Z</time></trkpt><trkpt lat="45.11105" lon="5.88349"><time>2000-01-01T03:58:02.000Z</time></trkpt><trkpt lat="45.11105" lon="5.88346"><ele>1843</ele><time>2000-01-01T03:58:12.000Z</time></trkpt><trkpt lat="45.11102" lon="5.88342"><time>2000-01-01T03:58:22.000Z</time></trkpt><trkpt lat="45.11096" lon="5.88316"><ele>1836</ele><time>2000-01-01T03:58:32.000Z</time></trkpt><trkpt lat="45.11087" lon="5.88266"><ele>1828</ele><time>2000-01-01T03:58:42.000Z</time></trkpt><trkpt lat="45.11085" lon="5.88234"><ele>1825</ele><time>2000-01-01T03:58:52.000Z</time></trkpt><trkpt lat="45.11094" lon="5.88228"><time>2000-01-01T03:59:02.000Z</time></trkpt><trkpt lat="45.11114" lon="5.88206"><ele>1818</ele><time>2000-01-01T03:59:12.000Z</time></trkpt><trkpt lat="45.11141" lon="5.88174"><ele>1817</ele><time>2000-01-01T03:59:22.000Z</time></trkpt><trkpt lat="45.11148" lon="5.88159"><time>2000-01-01T03:59:32.000Z</time></trkpt><trkpt lat="45.11149" lon="5.8814"><ele>1812</ele><time>2000-01-01T03:59:42.000Z</time></trkpt><trkpt lat="45.11148" lon="5.88122"><time>2000-01-01T03:59:52.000Z</time></trkpt><trkpt lat="45.11147" lon="5.88109"><ele>1811</ele><time>2000-01-01T04:00:02.000Z</time></trkpt><trkpt lat="45.11143" lon="5.88094"><time>2000-01-01T04:00:12.000Z</time></trkpt><trkpt lat="45.11144" lon="5.88086"><time>2000-01-01T04:00:22.000Z</time></trkpt><trkpt lat="45.11146" lon="5.88079"><ele>1807</ele><time>2000-01-01T04:00:32.000Z</time></trkpt><trkpt lat="45.11149" lon="5.88073"><time>2000-01-01T04:00:42.000Z</time></trkpt><trkpt lat="45.11149" lon="5.88069"><time>2000-01-01T04:00:52.000Z</time></trkpt><trkpt lat="45.1115" lon="5.88064"><time>2000-01-01T04:01:02.000Z</time></trkpt><trkpt lat="45.11159" lon="5.88053"><ele>1804</ele><time>2000-01-01T04:01:12.000Z</time></trkpt><trkpt lat="45.11171" lon="5.88029"><ele>1799</ele><time>2000-01-01T04:01:22.000Z</time></trkpt><trkpt lat="45.11194" lon="5.87983"><ele>1787</ele><time>2000-01-01T04:01:32.000Z</time></trkpt><trkpt lat="45.11206" lon="5.87953"><ele>1784</ele><time>2000-01-01T04:01:42.000Z</time></trkpt><trkpt lat="45.11225" lon="5.8792"><ele>1785</ele><time>2000-01-01T04:01:52.000Z</time></trkpt><trkpt lat="45.11227" lon="5.87907"><time>2000-01-01T04:02:02.000Z</time></trkpt><trkpt lat="45.11264" lon="5.87903"><ele>1786</ele><time>2000-01-01T04:02:12.000Z</time></trkpt><trkpt lat="45.11285" lon="5.87903"><ele>1789</ele><time>2000-01-01T04:02:22.000Z</time></trkpt><trkpt lat="45.11292" lon="5.87904"><time>2000-01-01T04:02:32.000Z</time></trkpt><trkpt lat="45.1131" lon="5.87911"><ele>1792</ele><time>2000-01-01T04:02:42.000Z</time></trkpt><trkpt lat="45.11319" lon="5.87918"><time>2000-01-01T04:02:52.000Z</time></trkpt><trkpt lat="45.11327" lon="5.87924"><ele>1795</ele><time>2000-01-01T04:03:02.000Z</time></trkpt><trkpt lat="45.11334" lon="5.87926"><time>2000-01-01T04:03:12.000Z</time></trkpt><trkpt lat="45.11351" lon="5.8793"><ele>1795</ele><time>2000-01-01T04:03:22.000Z</time></trkpt><trkpt lat="45.11356" lon="5.87932"><time>2000-01-01T04:03:32.000Z</time></trkpt><trkpt lat="45.11369" lon="5.87933"><time>2000-01-01T04:03:42.000Z</time></trkpt><trkpt lat="45.11379" lon="5.87938"><ele>1795</ele><time>2000-01-01T04:03:52.000Z</time></trkpt><trkpt lat="45.11394" lon="5.87945"><time>2000-01-01T04:04:02.000Z</time></trkpt><trkpt lat="45.11402" lon="5.87946"><ele>1803</ele><time>2000-01-01T04:04:12.000Z</time></trkpt><trkpt lat="45.11406" lon="5.87949"><time>2000-01-01T04:04:22.000Z</time></trkpt><trkpt lat="45.11409" lon="5.87949"><time>2000-01-01T04:04:32.000Z</time></trkpt><trkpt lat="45.11412" lon="5.87949"><time>2000-01-01T04:04:42.000Z</time></trkpt><trkpt lat="45.11415" lon="5.87947"><time>2000-01-01T04:04:52.000Z</time></trkpt><trkpt lat="45.11424" lon="5.87948"><ele>1806</ele><time>2000-01-01T04:05:02.000Z</time></trkpt><trkpt lat="45.11448" lon="5.87944"><ele>1807</ele><time>2000-01-01T04:05:12.000Z</time></trkpt><trkpt lat="45.11474" lon="5.8794"><ele>1807</ele><time>2000-01-01T04:05:22.000Z</time></trkpt><trkpt lat="45.11481" lon="5.87939"><time>2000-01-01T04:05:32.000Z</time></trkpt><trkpt lat="45.11494" lon="5.87936"><ele>1807</ele><time>2000-01-01T04:05:42.000Z</time></trkpt><trkpt lat="45.11504" lon="5.87938"><time>2000-01-01T04:05:52.000Z</time></trkpt><trkpt lat="45.11518" lon="5.87941"><ele>1811</ele><time>2000-01-01T04:06:02.000Z</time></trkpt><trkpt lat="45.1155" lon="5.87944"><ele>1810</ele><time>2000-01-01T04:06:12.000Z</time></trkpt><trkpt lat="45.11575" lon="5.87945"><ele>1809</ele><time>2000-01-01T04:06:22.000Z</time></trkpt><trkpt lat="45.11611" lon="5.87951"><ele>1804</ele><time>2000-01-01T04:06:32.000Z</time></trkpt><trkpt lat="45.11644" lon="5.87956"><ele>1803</ele><time>2000-01-01T04:06:42.000Z</time></trkpt><trkpt lat="45.11667" lon="5.87961"><ele>1802</ele><time>2000-01-01T04:06:52.000Z</time></trkpt><trkpt lat="45.11693" lon="5.87967"><ele>1798</ele><time>2000-01-01T04:07:02.000Z</time></trkpt><trkpt lat="45.11727" lon="5.87974"><ele>1797</ele><time>2000-01-01T04:07:12.000Z</time></trkpt><trkpt lat="45.11736" lon="5.87986"><time>2000-01-01T04:07:22.000Z</time></trkpt><trkpt lat="45.11754" lon="5.88015"><ele>1798</ele><time>2000-01-01T04:07:32.000Z</time></trkpt><trkpt lat="45.11764" lon="5.88029"><time>2000-01-01T04:07:42.000Z</time></trkpt><trkpt lat="45.11773" lon="5.8804"><ele>1799</ele><time>2000-01-01T04:07:52.000Z</time></trkpt><trkpt lat="45.11786" lon="5.88051"><time>2000-01-01T04:08:02.000Z</time></trkpt><trkpt lat="45.11794" lon="5.88055"><ele>1799</ele><time>2000-01-01T04:08:12.000Z</time></trkpt><trkpt lat="45.11812" lon="5.88064"><time>2000-01-01T04:08:22.000Z</time></trkpt><trkpt lat="45.11842" lon="5.88065"><ele>1799</ele><time>2000-01-01T04:08:32.000Z</time></trkpt><trkpt lat="45.11861" lon="5.8807"><ele>1793</ele><time>2000-01-01T04:08:42.000Z</time></trkpt><trkpt lat="45.11882" lon="5.88067"><ele>1794</ele><time>2000-01-01T04:08:52.000Z</time></trkpt><trkpt lat="45.11908" lon="5.8809"><ele>1795</ele><time>2000-01-01T04:09:02.000Z</time></trkpt><trkpt lat="45.1193" lon="5.88108"><ele>1797</ele><time>2000-01-01T04:09:12.000Z</time></trkpt><trkpt lat="45.11957" lon="5.88127"><ele>1796</ele><time>2000-01-01T04:09:22.000Z</time></trkpt><trkpt lat="45.11978" lon="5.88142"><ele>1796</ele><time>2000-01-01T04:09:32.000Z</time></trkpt><trkpt lat="45.12003" lon="5.88158"><ele>1795</ele><time>2000-01-01T04:09:42.000Z</time></trkpt><trkpt lat="45.12015" lon="5.88165"><time>2000-01-01T04:09:52.000Z</time></trkpt><trkpt lat="45.12034" lon="5.88168"><ele>1795</ele><time>2000-01-01T04:10:02.000Z</time></trkpt><trkpt lat="45.12041" lon="5.88169"><time>2000-01-01T04:10:12.000Z</time></trkpt><trkpt lat="45.12058" lon="5.88165"><ele>1790</ele><time>2000-01-01T04:10:22.000Z</time></trkpt><trkpt lat="45.12065" lon="5.88163"><time>2000-01-01T04:10:32.000Z</time></trkpt><trkpt lat="45.12082" lon="5.88171"><ele>1789</ele><time>2000-01-01T04:10:42.000Z</time></trkpt><trkpt lat="45.12085" lon="5.88172"><time>2000-01-01T04:10:52.000Z</time></trkpt><trkpt lat="45.12094" lon="5.88173"><time>2000-01-01T04:11:02.000Z</time></trkpt><trkpt lat="45.12097" lon="5.88173"><time>2000-01-01T04:11:12.000Z</time></trkpt><trkpt lat="45.12101" lon="5.88171"><ele>1786</ele><time>2000-01-01T04:11:22.000Z</time></trkpt><trkpt lat="45.12106" lon="5.88168"><time>2000-01-01T04:11:32.000Z</time></trkpt><trkpt lat="45.12115" lon="5.88171"><time>2000-01-01T04:11:42.000Z</time></trkpt><trkpt lat="45.12127" lon="5.88181"><ele>1786</ele><time>2000-01-01T04:11:52.000Z</time></trkpt><trkpt lat="45.12133" lon="5.88186"><time>2000-01-01T04:12:02.000Z</time></trkpt><trkpt lat="45.12137" lon="5.88193"><time>2000-01-01T04:12:12.000Z</time></trkpt><trkpt lat="45.12149" lon="5.88215"><ele>1802</ele><time>2000-01-01T04:12:22.000Z</time></trkpt><trkpt lat="45.12158" lon="5.88221"><time>2000-01-01T04:12:32.000Z</time></trkpt><trkpt lat="45.12172" lon="5.88231"><ele>1803</ele><time>2000-01-01T04:12:42.000Z</time></trkpt><trkpt lat="45.12184" lon="5.88243"><time>2000-01-01T04:12:52.000Z</time></trkpt><trkpt lat="45.12201" lon="5.88266"><ele>1799</ele><time>2000-01-01T04:13:02.000Z</time></trkpt><trkpt lat="45.12213" lon="5.88291"><ele>1798</ele><time>2000-01-01T04:13:12.000Z</time></trkpt><trkpt lat="45.12217" lon="5.883"><time>2000-01-01T04:13:22.000Z</time></trkpt><trkpt lat="45.12219" lon="5.88307"><time>2000-01-01T04:13:32.000Z</time></trkpt><trkpt lat="45.1222" lon="5.88317"><ele>1799</ele><time>2000-01-01T04:13:42.000Z</time></trkpt><trkpt lat="45.1222" lon="5.88324"><time>2000-01-01T04:13:52.000Z</time></trkpt><trkpt lat="45.12214" lon="5.88341"><time>2000-01-01T04:14:02.000Z</time></trkpt><trkpt lat="45.12213" lon="5.88344"><ele>1800</ele><time>2000-01-01T04:14:12.000Z</time></trkpt><trkpt lat="45.12206" lon="5.88365"><time>2000-01-01T04:14:22.000Z</time></trkpt><trkpt lat="45.12205" lon="5.88374"><ele>1808</ele><time>2000-01-01T04:14:32.000Z</time></trkpt><trkpt lat="45.12204" lon="5.88378"><time>2000-01-01T04:14:42.000Z</time></trkpt><trkpt lat="45.12205" lon="5.88388"><time>2000-01-01T04:14:52.000Z</time></trkpt><trkpt lat="45.12205" lon="5.88393"><time>2000-01-01T04:15:02.000Z</time></trkpt><trkpt lat="45.12205" lon="5.88396"><time>2000-01-01T04:15:12.000Z</time></trkpt><trkpt lat="45.12209" lon="5.88408"><ele>1811</ele><time>2000-01-01T04:15:22.000Z</time></trkpt><trkpt lat="45.12214" lon="5.88424"><time>2000-01-01T04:15:32.000Z</time></trkpt><trkpt lat="45.1222" lon="5.88436"><ele>1812</ele><time>2000-01-01T04:15:42.000Z</time></trkpt><trkpt lat="45.12224" lon="5.88445"><time>2000-01-01T04:15:52.000Z</time></trkpt><trkpt lat="45.12234" lon="5.88459"><ele>1816</ele><time>2000-01-01T04:16:02.000Z</time></trkpt><trkpt lat="45.12242" lon="5.88467"><time>2000-01-01T04:16:12.000Z</time></trkpt><trkpt lat="45.12243" lon="5.88468"><time>2000-01-01T04:16:22.000Z</time></trkpt><trkpt lat="45.1225" lon="5.88478"><ele>1819</ele><time>2000-01-01T04:16:32.000Z</time></trkpt><trkpt lat="45.12255" lon="5.88486"><time>2000-01-01T04:16:42.000Z</time></trkpt><trkpt lat="45.12264" lon="5.88504"><ele>1818</ele><time>2000-01-01T04:16:52.000Z</time></trkpt><trkpt lat="45.12269" lon="5.88514"><time>2000-01-01T04:17:02.000Z</time></trkpt><trkpt lat="45.12272" lon="5.88519"><time>2000-01-01T04:17:12.000Z</time></trkpt><trkpt lat="45.12276" lon="5.88523"><time>2000-01-01T04:17:22.000Z</time></trkpt><trkpt lat="45.12283" lon="5.88533"><ele>1817</ele><time>2000-01-01T04:17:32.000Z</time></trkpt><trkpt lat="45.12288" lon="5.88537"><time>2000-01-01T04:17:42.000Z</time></trkpt><trkpt lat="45.12291" lon="5.88539"><time>2000-01-01T04:17:52.000Z</time></trkpt><trkpt lat="45.12298" lon="5.88546"><time>2000-01-01T04:18:02.000Z</time></trkpt><trkpt lat="45.1231" lon="5.88553"><ele>1812</ele><time>2000-01-01T04:18:12.000Z</time></trkpt><trkpt lat="45.12315" lon="5.88555"><time>2000-01-01T04:18:22.000Z</time></trkpt><trkpt lat="45.12342" lon="5.88557"><ele>1800</ele><time>2000-01-01T04:18:32.000Z</time></trkpt><trkpt lat="45.12356" lon="5.88557"><time>2000-01-01T04:18:42.000Z</time></trkpt><trkpt lat="45.12362" lon="5.88554"><ele>1794</ele><time>2000-01-01T04:18:52.000Z</time></trkpt><trkpt lat="45.12371" lon="5.88548"><time>2000-01-01T04:19:02.000Z</time></trkpt><trkpt lat="45.12376" lon="5.88546"><time>2000-01-01T04:19:12.000Z</time></trkpt><trkpt lat="45.12381" lon="5.88545"><ele>1793</ele><time>2000-01-01T04:19:22.000Z</time></trkpt><trkpt lat="45.12386" lon="5.88547"><time>2000-01-01T04:19:32.000Z</time></trkpt><trkpt lat="45.12391" lon="5.8855"><time>2000-01-01T04:19:42.000Z</time></trkpt><trkpt lat="45.12404" lon="5.88563"><ele>1796</ele><time>2000-01-01T04:19:52.000Z</time></trkpt><trkpt lat="45.12413" lon="5.8857"><time>2000-01-01T04:20:02.000Z</time></trkpt><trkpt lat="45.12416" lon="5.88574"><time>2000-01-01T04:20:12.000Z</time></trkpt><trkpt lat="45.12423" lon="5.88582"><ele>1799</ele><time>2000-01-01T04:20:22.000Z</time></trkpt><trkpt lat="45.12426" lon="5.88586"><time>2000-01-01T04:20:32.000Z</time></trkpt><trkpt lat="45.12426" lon="5.88587"><ele>1799</ele><time>2000-01-01T04:20:42.000Z</time></trkpt></trkseg></trk></gpx>